Time,TemperatureF,DewpointF,PressureIn,WindDirection,WindDirectionDegrees,WindSpeedMPH,WindSpeedGustMPH,Humidity,HourlyPrecipIn,Conditions,Clouds,dailyrainin,SoftwareType,DateUTC
2013-05-27 00:01:00,42.4,39.7,29.91,South,190,5.8,5.8,90,0.00,,---,0.00,VWS V14.01,2013-05-27 06:01:00,
2013-05-27 00:02:00,42.4,39.7,29.91,South,190,5.8,5.8,90,0.00,,---,0.00,VWS V14.01,2013-05-27 06:02:00,
2013-05-27 00:03:00,42.4,39.7,29.91,SSW,198,5.8,8.3,90,0.00,,---,0.00,VWS V14.01,2013-05-27 06:03:00,
2013-05-27 00:04:00,42.4,40.0,29.91,SSW,198,5.4,8.3,91,0.00,,---,0.00,VWS V14.01,2013-05-27 06:04:00,
2013-05-27 00:06:00,42.4,40.0,29.91,SSW,193,5.8,8.3,91,0.00,,---,0.00,VWS V14.01,2013-05-27 06:06:00,
2013-05-27 00:07:00,42.4,40.0,29.91,SSW,199,5.4,8.3,91,0.00,,---,0.00,VWS V14.01,2013-05-27 06:07:00,
2013-05-27 00:08:00,42.4,40.0,29.91,SSW,196,5.8,8.3,91,0.00,,---,0.00,VWS V14.01,2013-05-27 06:08:00,
2013-05-27 00:10:00,42.4,40.0,29.91,SSW,195,4.0,8.3,91,0.00,,---,0.00,VWS V14.01,2013-05-27 06:10:00,
2013-05-27 00:12:00,42.4,40.0,29.91,SSW,198,3.6,8.3,91,0.00,,---,0.00,VWS V14.01,2013-05-27 06:12:00,
2013-05-27 00:14:00,42.4,40.0,29.91,SSW,196,6.3,8.3,91,0.00,,---,0.00,VWS V14.01,2013-05-27 06:14:00,
2013-05-27 00:15:00,42.3,39.8,29.91,SSW,202,4.9,8.3,91,0.00,,---,0.00,VWS V14.01,2013-05-27 06:15:00,
2013-05-27 00:17:00,42.3,39.8,29.91,SSW,201,5.8,6.3,91,0.00,,---,0.00,VWS V14.01,2013-05-27 06:17:00,
2013-05-27 00:19:00,42.1,39.4,29.91,SSW,203,5.8,8.1,90,0.00,,---,0.00,VWS V14.01,2013-05-27 06:19:00,
2013-05-27 00:20:00,42.1,39.4,29.91,South,183,5.4,8.1,90,0.00,,---,0.00,VWS V14.01,2013-05-27 06:20:00,
2013-05-27 00:22:00,42.1,39.4,29.91,SSW,193,5.8,8.1,90,0.00,,---,0.00,VWS V14.01,2013-05-27 06:22:00,
2013-05-27 00:24:00,42.3,39.5,29.91,SSW,192,4.0,8.1,90,0.00,,---,0.00,VWS V14.01,2013-05-27 06:24:00,
2013-05-27 00:25:00,42.3,39.5,29.91,South,191,5.4,8.1,90,0.00,,---,0.00,VWS V14.01,2013-05-27 06:25:00,
2013-05-27 00:27:00,42.3,39.5,29.91,SSW,192,4.0,8.1,90,0.00,,---,0.00,VWS V14.01,2013-05-27 06:27:00,
2013-05-27 00:30:00,42.1,39.1,29.91,South,187,3.6,8.1,89,0.00,,---,0.00,VWS V14.01,2013-05-27 06:30:00,
2013-05-27 00:32:00,42.1,38.8,29.91,SSW,200,5.4,6.3,88,0.00,,---,0.00,VWS V14.01,2013-05-27 06:32:00,
2013-05-27 00:35:00,42.1,38.8,29.91,South,188,3.6,6.3,88,0.00,,---,0.00,VWS V14.01,2013-05-27 06:35:00,
2013-05-27 00:36:00,42.1,38.8,29.91,SSW,193,3.6,6.3,88,0.00,,---,0.00,VWS V14.01,2013-05-27 06:36:00,
2013-05-27 00:37:00,42.1,38.8,29.91,South,189,2.7,6.3,88,0.00,,---,0.00,VWS V14.01,2013-05-27 06:37:00,
2013-05-27 00:40:00,42.1,38.5,29.91,SSW,204,3.6,6.3,87,0.00,,---,0.00,VWS V14.01,2013-05-27 06:40:00,
2013-05-27 00:41:00,42.1,38.5,29.91,SSW,202,4.0,6.3,87,0.00,,---,0.00,VWS V14.01,2013-05-27 06:41:00,
2013-05-27 00:42:00,42.1,38.5,29.91,SSW,197,5.8,6.3,87,0.00,,---,0.00,VWS V14.01,2013-05-27 06:42:00,
2013-05-27 00:43:00,42.1,38.2,29.91,SSW,210,4.0,6.3,86,0.00,,---,0.00,VWS V14.01,2013-05-27 06:43:00,
2013-05-27 00:45:00,42.1,38.2,29.91,South,184,3.6,6.3,86,0.00,,---,0.00,VWS V14.01,2013-05-27 06:45:00,
2013-05-27 00:46:00,42.1,38.2,29.91,SSW,199,3.1,3.1,86,0.00,,---,0.00,VWS V14.01,2013-05-27 06:46:00,
2013-05-27 00:47:00,42.1,38.2,29.91,SSW,199,2.7,3.1,86,0.00,,---,0.00,VWS V14.01,2013-05-27 06:47:00,
2013-05-27 00:48:00,42.1,38.2,29.91,SSW,199,3.1,3.1,86,0.00,,---,0.00,VWS V14.01,2013-05-27 06:48:00,
2013-05-27 00:50:00,42.1,37.9,29.91,SSW,196,3.1,3.1,85,0.00,,---,0.00,VWS V14.01,2013-05-27 06:50:00,
2013-05-27 00:51:00,42.1,37.9,29.91,SSW,194,3.1,3.6,85,0.00,,---,0.00,VWS V14.01,2013-05-27 06:51:00,
2013-05-27 00:53:00,42.1,37.9,29.91,SSW,198,2.2,3.6,85,0.00,,---,0.00,VWS V14.01,2013-05-27 06:53:00,
2013-05-27 00:54:00,42.1,37.9,29.91,SSW,197,2.2,3.6,85,0.00,,---,0.00,VWS V14.01,2013-05-27 06:54:00,
2013-05-27 00:55:00,42.3,38.4,29.91,SSW,196,2.7,3.6,86,0.00,,---,0.00,VWS V14.01,2013-05-27 06:55:00,
2013-05-27 00:56:00,42.3,38.4,29.91,SSW,194,2.7,3.6,86,0.00,,---,0.00,VWS V14.01,2013-05-27 06:56:00,
2013-05-27 00:58:00,42.3,38.1,29.91,SSW,194,0.0,3.6,85,0.00,,---,0.00,VWS V14.01,2013-05-27 06:58:00,
2013-05-27 00:59:00,42.3,38.1,29.91,SSW,193,2.2,3.6,85,0.00,,---,0.00,VWS V14.01,2013-05-27 06:59:00,
2013-05-27 01:00:00,42.1,37.9,29.91,SSW,193,2.7,3.6,85,0.00,,---,0.00,VWS V14.01,2013-05-27 07:00:00,
2013-05-27 01:01:00,42.1,37.9,29.91,SSW,193,2.7,2.7,85,0.00,,---,0.00,VWS V14.01,2013-05-27 07:01:00,
2013-05-27 01:04:00,42.1,38.2,29.88,SSW,192,3.1,4.0,86,0.00,,---,0.00,VWS V14.01,2013-05-27 07:04:00,
2013-05-27 01:06:00,42.3,38.4,29.88,SSW,199,4.0,4.0,86,0.00,,---,0.00,VWS V14.01,2013-05-27 07:06:00,
2013-05-27 01:09:00,42.4,38.6,29.88,SSW,194,2.7,4.0,86,0.00,,---,0.00,VWS V14.01,2013-05-27 07:09:00,
2013-05-27 01:10:00,42.4,38.6,29.88,SSW,193,2.2,4.0,86,0.00,,---,0.00,VWS V14.01,2013-05-27 07:10:00,
2013-05-27 01:11:00,42.4,38.6,29.88,South,173,3.1,4.0,86,0.00,,---,0.00,VWS V14.01,2013-05-27 07:11:00,
2013-05-27 01:14:00,42.3,38.4,29.88,South,171,2.2,4.0,86,0.00,,---,0.00,VWS V14.01,2013-05-27 07:14:00,
2013-05-27 01:15:00,42.3,38.4,29.88,SSW,193,3.1,4.0,86,0.00,,---,0.00,VWS V14.01,2013-05-27 07:15:00,
2013-05-27 01:16:00,42.1,37.9,29.88,SSW,200,3.1,4.0,85,0.00,,---,0.00,VWS V14.01,2013-05-27 07:16:00,
2013-05-27 01:20:00,41.5,37.1,29.91,South,188,0.0,4.0,84,0.00,,---,0.00,VWS V14.01,2013-05-27 07:20:00,
2013-05-27 01:21:00,41.2,36.7,29.91,South,189,0.0,4.0,84,0.00,,---,0.00,VWS V14.01,2013-05-27 07:21:00,
2013-05-27 01:22:00,41.2,36.7,29.91,South,188,0.0,4.0,84,0.00,,---,0.00,VWS V14.01,2013-05-27 07:22:00,
2013-05-27 01:25:00,41.0,36.5,29.91,South,188,0.0,4.0,84,0.00,,---,0.00,VWS V14.01,2013-05-27 07:25:00,
2013-05-27 01:26:00,41.0,36.5,29.91,South,189,2.2,4.0,84,0.00,,---,0.00,VWS V14.01,2013-05-27 07:26:00,
2013-05-27 01:27:00,41.0,36.5,29.91,South,189,2.2,4.0,84,0.00,,---,0.00,VWS V14.01,2013-05-27 07:27:00,
2013-05-27 01:30:00,40.8,36.7,29.91,South,184,0.0,4.0,85,0.00,,---,0.00,VWS V14.01,2013-05-27 07:30:00,
2013-05-27 01:32:00,40.8,36.7,29.88,South,186,3.1,3.1,85,0.00,,---,0.00,VWS V14.01,2013-05-27 07:32:00,
2013-05-27 01:35:00,41.0,37.1,29.88,SSW,195,0.0,4.0,86,0.00,,---,0.00,VWS V14.01,2013-05-27 07:35:00,
2013-05-27 01:37:00,41.0,37.1,29.88,SSW,195,0.0,4.0,86,0.00,,---,0.00,VWS V14.01,2013-05-27 07:37:00,
2013-05-27 01:40:00,40.8,37.0,29.88,SSW,195,0.0,4.0,86,0.00,,---,0.00,VWS V14.01,2013-05-27 07:40:00,
2013-05-27 01:41:00,40.8,37.0,29.88,SSW,195,0.0,4.0,86,0.00,,---,0.00,VWS V14.01,2013-05-27 07:41:00,
2013-05-27 01:42:00,40.8,37.0,29.88,SSW,195,0.0,4.0,86,0.00,,---,0.00,VWS V14.01,2013-05-27 07:42:00,
2013-05-27 01:43:00,40.8,37.0,29.88,SSW,195,0.0,4.0,86,0.00,,---,0.00,VWS V14.01,2013-05-27 07:43:00,
2013-05-27 01:46:00,40.6,36.8,29.88,SSW,195,0.0,0.0,86,0.00,,---,0.00,VWS V14.01,2013-05-27 07:46:00,
2013-05-27 01:47:00,40.6,36.8,29.88,SSW,195,0.0,0.0,86,0.00,,---,0.00,VWS V14.01,2013-05-27 07:47:00,
2013-05-27 01:48:00,40.6,36.8,29.88,SSW,195,0.0,0.0,86,0.00,,---,0.00,VWS V14.01,2013-05-27 07:48:00,
2013-05-27 01:51:00,40.5,36.6,29.88,SSW,195,0.0,0.0,86,0.00,,---,0.00,VWS V14.01,2013-05-27 07:51:00,
2013-05-27 01:52:00,40.5,36.6,29.88,SSW,195,0.0,0.0,86,0.00,,---,0.00,VWS V14.01,2013-05-27 07:52:00,
2013-05-27 01:53:00,40.5,36.6,29.88,SSW,195,2.2,2.2,86,0.00,,---,0.00,VWS V14.01,2013-05-27 07:53:00,
2013-05-27 01:56:00,40.3,36.4,29.88,SSW,195,2.2,2.7,86,0.00,,---,0.00,VWS V14.01,2013-05-27 07:56:00,
2013-05-27 01:58:00,40.1,36.3,29.88,SSW,195,2.2,2.7,86,0.00,,---,0.00,VWS V14.01,2013-05-27 07:58:00,
2013-05-27 01:59:00,40.1,36.3,29.88,SSW,195,0.0,2.7,86,0.00,,---,0.00,VWS V14.01,2013-05-27 07:59:00,
2013-05-27 02:01:00,39.9,36.1,29.88,SSW,195,2.2,2.2,86,0.00,,---,0.00,VWS V14.01,2013-05-27 08:01:00,
2013-05-27 02:02:00,39.9,36.1,29.88,SSW,195,0.0,2.2,86,0.00,,---,0.00,VWS V14.01,2013-05-27 08:02:00,
2013-05-27 02:03:00,39.9,36.1,29.88,SSW,195,2.2,2.7,86,0.00,,---,0.00,VWS V14.01,2013-05-27 08:03:00,
2013-05-27 02:04:00,39.9,36.1,29.88,SSW,195,2.2,3.1,86,0.00,,---,0.00,VWS V14.01,2013-05-27 08:04:00,
2013-05-27 02:06:00,39.9,36.4,29.88,SSW,195,2.2,3.1,87,0.00,,---,0.00,VWS V14.01,2013-05-27 08:06:00,
2013-05-27 02:07:00,39.9,36.4,29.88,SSW,195,2.2,3.1,87,0.00,,---,0.00,VWS V14.01,2013-05-27 08:07:00,
2013-05-27 02:08:00,40.1,36.5,29.88,SSW,195,0.0,3.1,87,0.00,,---,0.00,VWS V14.01,2013-05-27 08:08:00,
2013-05-27 02:09:00,40.1,36.5,29.88,SSW,195,0.0,3.1,87,0.00,,---,0.00,VWS V14.01,2013-05-27 08:09:00,
2013-05-27 02:12:00,40.1,36.5,29.88,SSW,195,2.7,3.1,87,0.00,,---,0.00,VWS V14.01,2013-05-27 08:12:00,
2013-05-27 02:13:00,39.9,36.4,29.88,SSW,195,0.0,3.1,87,0.00,,---,0.00,VWS V14.01,2013-05-27 08:13:00,
2013-05-27 02:14:00,39.9,36.4,29.88,SSW,195,0.0,3.1,87,0.00,,---,0.00,VWS V14.01,2013-05-27 08:14:00,
2013-05-27 02:15:00,39.9,36.4,29.88,SSW,195,3.6,3.6,87,0.00,,---,0.00,VWS V14.01,2013-05-27 08:15:00,
2013-05-27 02:17:00,39.9,36.4,29.88,SSW,193,2.7,4.0,87,0.00,,---,0.00,VWS V14.01,2013-05-27 08:17:00,
2013-05-27 02:18:00,39.9,36.7,29.88,South,189,0.0,4.0,88,0.00,,---,0.00,VWS V14.01,2013-05-27 08:18:00,
2013-05-27 02:19:00,39.9,36.7,29.88,SSW,195,3.6,4.0,88,0.00,,---,0.00,VWS V14.01,2013-05-27 08:19:00,
2013-05-27 02:21:00,40.1,36.8,29.88,SSW,202,3.6,5.8,88,0.00,,---,0.00,VWS V14.01,2013-05-27 08:21:00,
2013-05-27 02:22:00,40.3,37.3,29.88,SSW,198,3.6,6.3,89,0.00,,---,0.00,VWS V14.01,2013-05-27 08:22:00,
2013-05-27 02:23:00,40.3,37.3,29.88,SSW,197,2.7,6.3,89,0.00,,---,0.00,VWS V14.01,2013-05-27 08:23:00,
2013-05-27 02:24:00,40.3,37.3,29.88,SSW,200,4.0,6.3,89,0.00,,---,0.00,VWS V14.01,2013-05-27 08:24:00,
2013-05-27 02:25:00,40.3,37.3,29.88,South,190,3.1,6.3,89,0.00,,---,0.00,VWS V14.01,2013-05-27 08:25:00,
2013-05-27 02:26:00,40.3,37.3,29.88,SSW,195,4.0,6.3,89,0.00,,---,0.00,VWS V14.01,2013-05-27 08:26:00,
2013-05-27 02:28:00,40.5,37.8,29.88,SSW,201,3.6,6.3,90,0.00,,---,0.00,VWS V14.01,2013-05-27 08:28:00,
2013-05-27 02:29:00,40.5,37.8,29.88,SSW,199,4.9,6.3,90,0.00,,---,0.00,VWS V14.01,2013-05-27 08:29:00,
2013-05-27 02:30:00,40.5,37.8,29.88,SSW,207,4.0,6.3,90,0.00,,---,0.00,VWS V14.01,2013-05-27 08:30:00,
2013-05-27 02:32:00,40.6,37.9,29.88,SSW,208,5.4,5.4,90,0.00,,---,0.00,VWS V14.01,2013-05-27 08:32:00,
2013-05-27 02:33:00,40.8,38.1,29.88,SSW,200,4.0,5.4,90,0.00,,---,0.00,VWS V14.01,2013-05-27 08:33:00,
2013-05-27 02:35:00,41.0,38.3,29.88,SSW,205,4.0,5.4,90,0.00,,---,0.00,VWS V14.01,2013-05-27 08:35:00,
2013-05-27 02:37:00,41.0,38.3,29.88,SSW,205,4.9,5.4,90,0.00,,---,0.00,VWS V14.01,2013-05-27 08:37:00,
2013-05-27 02:38:00,41.2,38.8,29.88,SSW,202,3.1,5.4,91,0.00,,---,0.00,VWS V14.01,2013-05-27 08:38:00,
2013-05-27 02:39:00,41.2,38.8,29.88,SSW,202,4.0,5.4,91,0.00,,---,0.00,VWS V14.01,2013-05-27 08:39:00,
2013-05-27 02:40:00,41.2,38.8,29.88,SSW,202,4.0,5.4,91,0.00,,---,0.00,VWS V14.01,2013-05-27 08:40:00,
2013-05-27 02:42:00,41.4,38.9,29.88,SSW,196,4.9,5.4,91,0.00,,---,0.00,VWS V14.01,2013-05-27 08:42:00,
2013-05-27 02:43:00,41.5,39.1,29.88,SSW,194,4.0,5.4,91,0.00,,---,0.00,VWS V14.01,2013-05-27 08:43:00,
2013-05-27 02:44:00,41.7,39.3,29.88,SSW,194,3.6,5.4,91,0.00,,---,0.00,VWS V14.01,2013-05-27 08:44:00,
2013-05-27 02:45:00,41.7,39.3,29.88,SSW,197,3.1,5.4,91,0.00,,---,0.00,VWS V14.01,2013-05-27 08:45:00,
2013-05-27 02:47:00,41.7,39.3,29.88,SSW,197,2.7,3.1,91,0.00,,---,0.00,VWS V14.01,2013-05-27 08:47:00,
2013-05-27 02:48:00,41.7,39.3,29.88,SSW,197,3.1,3.1,91,0.00,,---,0.00,VWS V14.01,2013-05-27 08:48:00,
2013-05-27 02:49:00,41.7,39.3,29.88,SSW,197,0.0,3.1,91,0.00,,---,0.00,VWS V14.01,2013-05-27 08:49:00,
2013-05-27 02:50:00,41.7,39.3,29.88,SSW,197,2.2,3.1,91,0.00,,---,0.00,VWS V14.01,2013-05-27 08:50:00,
2013-05-27 02:52:00,41.7,39.0,29.88,SSW,197,0.0,3.1,90,0.00,,---,0.00,VWS V14.01,2013-05-27 08:52:00,
2013-05-27 02:54:00,41.5,38.8,29.88,SSW,197,0.0,3.1,90,0.00,,---,0.00,VWS V14.01,2013-05-27 08:54:00,
2013-05-27 02:56:00,41.2,38.2,29.88,SSW,197,0.0,3.1,89,0.00,,---,0.00,VWS V14.01,2013-05-27 08:56:00,
2013-05-27 02:57:00,41.0,37.7,29.88,SSW,196,0.0,3.1,88,0.00,,---,0.00,VWS V14.01,2013-05-27 08:57:00,
2013-05-27 02:58:00,40.6,37.4,29.88,South,190,2.7,3.1,88,0.00,,---,0.00,VWS V14.01,2013-05-27 08:58:00,
2013-05-27 02:59:00,40.6,37.4,29.88,South,191,3.1,3.1,88,0.00,,---,0.00,VWS V14.01,2013-05-27 08:59:00,
2013-05-27 03:01:00,40.6,37.4,29.88,SSW,195,2.2,3.1,88,0.00,,---,0.00,VWS V14.01,2013-05-27 09:01:00,
2013-05-27 03:02:00,40.6,37.4,29.88,SSW,195,2.7,3.1,88,0.00,,---,0.00,VWS V14.01,2013-05-27 09:02:00,
2013-05-27 03:03:00,40.6,37.4,29.88,South,190,3.1,3.6,88,0.00,,---,0.00,VWS V14.01,2013-05-27 09:03:00,
2013-05-27 03:04:00,40.6,37.4,29.88,South,190,2.2,3.6,88,0.00,,---,0.00,VWS V14.01,2013-05-27 09:04:00,
2013-05-27 03:05:00,40.6,37.4,29.88,South,185,2.7,3.6,88,0.00,,---,0.00,VWS V14.01,2013-05-27 09:05:00,
2013-05-27 03:06:00,40.6,37.4,29.88,South,186,4.0,4.0,88,0.00,,---,0.00,VWS V14.01,2013-05-27 09:06:00,
2013-05-27 03:07:00,40.5,37.2,29.88,South,185,3.1,4.0,88,0.00,,---,0.00,VWS V14.01,2013-05-27 09:07:00,
2013-05-27 03:08:00,40.5,37.2,29.88,SSW,192,3.6,4.9,88,0.00,,---,0.00,VWS V14.01,2013-05-27 09:08:00,
2013-05-27 03:09:00,40.5,37.2,29.88,South,189,2.2,4.9,88,0.00,,---,0.00,VWS V14.01,2013-05-27 09:09:00,
2013-05-27 03:10:00,40.5,37.2,29.88,South,182,2.7,4.9,88,0.00,,---,0.00,VWS V14.01,2013-05-27 09:10:00,
2013-05-27 03:11:00,40.5,37.2,29.88,South,181,2.7,4.9,88,0.00,,---,0.00,VWS V14.01,2013-05-27 09:11:00,
2013-05-27 03:12:00,40.3,37.0,29.88,South,182,0.0,4.9,88,0.00,,---,0.00,VWS V14.01,2013-05-27 09:12:00,
2013-05-27 03:13:00,40.3,37.0,29.88,South,181,0.0,4.9,88,0.00,,---,0.00,VWS V14.01,2013-05-27 09:13:00,
2013-05-27 03:14:00,40.1,36.8,29.88,South,181,0.0,4.9,88,0.00,,---,0.00,VWS V14.01,2013-05-27 09:14:00,
2013-05-27 03:15:00,39.9,36.7,29.88,South,181,2.2,2.2,88,0.00,,---,0.00,VWS V14.01,2013-05-27 09:15:00,
2013-05-27 03:16:00,39.9,36.7,29.88,South,181,0.0,2.2,88,0.00,,---,0.00,VWS V14.01,2013-05-27 09:16:00,
2013-05-27 03:17:00,39.9,36.7,29.88,South,181,2.7,3.1,88,0.00,,---,0.00,VWS V14.01,2013-05-27 09:17:00,
2013-05-27 03:19:00,39.7,36.5,29.88,South,186,4.0,4.0,88,0.00,,---,0.00,VWS V14.01,2013-05-27 09:19:00,
2013-05-27 03:20:00,39.7,36.5,29.88,SSW,201,3.6,4.0,88,0.00,,---,0.00,VWS V14.01,2013-05-27 09:20:00,
2013-05-27 03:21:00,39.7,36.5,29.88,South,185,3.1,4.0,88,0.00,,---,0.00,VWS V14.01,2013-05-27 09:21:00,
2013-05-27 03:23:00,39.9,36.7,29.88,South,186,4.0,5.4,88,0.00,,---,0.00,VWS V14.01,2013-05-27 09:23:00,
2013-05-27 03:24:00,39.9,36.7,29.88,South,183,3.6,5.8,88,0.00,,---,0.00,VWS V14.01,2013-05-27 09:24:00,
2013-05-27 03:25:00,39.9,36.7,29.88,SSW,196,4.0,5.8,88,0.00,,---,0.00,VWS V14.01,2013-05-27 09:25:00,
2013-05-27 03:26:00,39.9,36.7,29.88,SSW,200,6.3,6.3,88,0.00,,---,0.00,VWS V14.01,2013-05-27 09:26:00,
2013-05-27 03:28:00,39.7,36.5,29.88,South,183,4.0,6.3,88,0.00,,---,0.00,VWS V14.01,2013-05-27 09:28:00,
2013-05-27 03:29:00,39.7,36.5,29.88,SSW,198,5.4,6.3,88,0.00,,---,0.00,VWS V14.01,2013-05-27 09:29:00,
2013-05-27 03:30:00,39.7,36.5,29.88,SSW,202,4.9,6.3,88,0.00,,---,0.00,VWS V14.01,2013-05-27 09:30:00,
2013-05-27 03:31:00,39.7,36.5,29.88,SSW,202,4.0,4.9,88,0.00,,---,0.00,VWS V14.01,2013-05-27 09:31:00,
2013-05-27 03:33:00,39.7,36.5,29.88,South,190,2.7,5.4,88,0.00,,---,0.00,VWS V14.01,2013-05-27 09:33:00,
2013-05-27 03:34:00,39.7,36.5,29.88,South,190,4.0,5.4,88,0.00,,---,0.00,VWS V14.01,2013-05-27 09:34:00,
2013-05-27 03:35:00,39.7,36.5,29.88,SSW,203,5.4,5.8,88,0.00,,---,0.00,VWS V14.01,2013-05-27 09:35:00,
2013-05-27 03:36:00,39.7,36.5,29.88,SSW,196,5.4,5.8,88,0.00,,---,0.00,VWS V14.01,2013-05-27 09:36:00,
2013-05-27 03:38:00,39.9,36.7,29.88,SSW,200,5.4,6.3,88,0.00,,---,0.00,VWS V14.01,2013-05-27 09:38:00,
2013-05-27 03:39:00,39.9,36.7,29.88,SSW,199,5.8,6.3,88,0.00,,---,0.00,VWS V14.01,2013-05-27 09:39:00,
2013-05-27 03:40:00,39.9,36.7,29.88,SSW,195,4.9,6.3,88,0.00,,---,0.00,VWS V14.01,2013-05-27 09:40:00,
2013-05-27 03:42:00,40.3,37.0,29.88,SSW,197,4.9,6.3,88,0.00,,---,0.00,VWS V14.01,2013-05-27 09:42:00,
2013-05-27 03:44:00,40.3,37.0,29.88,SSW,198,4.0,6.3,88,0.00,,---,0.00,VWS V14.01,2013-05-27 09:44:00,
2013-05-27 03:45:00,40.5,37.2,29.88,SSW,193,3.1,6.3,88,0.00,,---,0.00,VWS V14.01,2013-05-27 09:45:00,
2013-05-27 03:47:00,40.6,37.4,29.88,SSW,193,0.0,4.0,88,0.00,,---,0.00,VWS V14.01,2013-05-27 09:47:00,
2013-05-27 03:49:00,40.8,37.5,29.88,SSW,193,0.0,4.0,88,0.00,,---,0.00,VWS V14.01,2013-05-27 09:49:00,
2013-05-27 03:50:00,40.8,37.5,29.88,SSW,193,0.0,4.0,88,0.00,,---,0.00,VWS V14.01,2013-05-27 09:50:00,
2013-05-27 03:51:00,40.8,37.5,29.88,SSW,193,0.0,4.0,88,0.00,,---,0.00,VWS V14.01,2013-05-27 09:51:00,
2013-05-27 03:52:00,40.8,37.3,29.88,SSW,193,0.0,4.0,87,0.00,,---,0.00,VWS V14.01,2013-05-27 09:52:00,
2013-05-27 03:54:00,40.8,37.3,29.88,SSW,193,0.0,4.0,87,0.00,,---,0.00,VWS V14.01,2013-05-27 09:54:00,
2013-05-27 03:55:00,40.6,37.1,29.88,SSW,193,0.0,4.0,87,0.00,,---,0.00,VWS V14.01,2013-05-27 09:55:00,
2013-05-27 03:56:00,40.6,37.1,29.88,SSW,193,0.0,4.0,87,0.00,,---,0.00,VWS V14.01,2013-05-27 09:56:00,
2013-05-27 03:57:00,40.5,36.9,29.88,SSW,193,0.0,4.0,87,0.00,,---,0.00,VWS V14.01,2013-05-27 09:57:00,
2013-05-27 04:00:00,40.3,36.4,29.88,SSW,193,0.0,4.0,86,0.00,,---,0.00,VWS V14.01,2013-05-27 10:00:00,
2013-05-27 04:01:00,40.1,36.3,29.88,South,181,2.2,2.2,86,0.00,,---,0.00,VWS V14.01,2013-05-27 10:01:00,
2013-05-27 04:02:00,40.1,36.3,29.88,South,181,0.0,2.2,86,0.00,,---,0.00,VWS V14.01,2013-05-27 10:02:00,
2013-05-27 04:03:00,39.9,36.1,29.88,South,181,2.2,2.2,86,0.00,,---,0.00,VWS V14.01,2013-05-27 10:03:00,
2013-05-27 04:05:00,39.9,36.1,29.88,South,178,0.0,2.2,86,0.00,,---,0.00,VWS V14.01,2013-05-27 10:05:00,
2013-05-27 04:06:00,39.7,35.9,29.88,South,178,0.0,2.2,86,0.00,,---,0.00,VWS V14.01,2013-05-27 10:06:00,
2013-05-27 04:07:00,39.7,35.9,29.88,South,178,0.0,2.2,86,0.00,,---,0.00,VWS V14.01,2013-05-27 10:07:00,
2013-05-27 04:08:00,39.6,35.7,29.88,South,178,0.0,2.2,86,0.00,,---,0.00,VWS V14.01,2013-05-27 10:08:00,
2013-05-27 04:10:00,39.4,35.5,29.88,South,179,2.7,2.7,86,0.00,,---,0.00,VWS V14.01,2013-05-27 10:10:00,
2013-05-27 04:11:00,39.4,35.5,29.88,South,180,0.0,2.7,86,0.00,,---,0.00,VWS V14.01,2013-05-27 10:11:00,
2013-05-27 04:12:00,39.4,35.5,29.88,South,180,0.0,2.7,86,0.00,,---,0.00,VWS V14.01,2013-05-27 10:12:00,
2013-05-27 04:13:00,39.4,35.5,29.88,South,180,0.0,2.7,86,0.00,,---,0.00,VWS V14.01,2013-05-27 10:13:00,
2013-05-27 04:14:00,39.2,35.4,29.88,South,180,0.0,2.7,86,0.00,,---,0.00,VWS V14.01,2013-05-27 10:14:00,
2013-05-27 04:15:00,39.2,35.4,29.88,South,179,0.0,0.0,86,0.00,,---,0.00,VWS V14.01,2013-05-27 10:15:00,
2013-05-27 04:17:00,39.0,35.2,29.88,South,179,0.0,0.0,86,0.00,,---,0.00,VWS V14.01,2013-05-27 10:17:00,
2013-05-27 04:18:00,39.0,35.2,29.88,South,179,0.0,0.0,86,0.00,,---,0.00,VWS V14.01,2013-05-27 10:18:00,
2013-05-27 04:19:00,39.0,35.2,29.88,South,179,0.0,0.0,86,0.00,,---,0.00,VWS V14.01,2013-05-27 10:19:00,
2013-05-27 04:21:00,38.8,35.0,29.88,South,179,0.0,0.0,86,0.00,,---,0.00,VWS V14.01,2013-05-27 10:21:00,
2013-05-27 04:22:00,38.8,35.0,29.88,South,179,0.0,0.0,86,0.00,,---,0.00,VWS V14.01,2013-05-27 10:22:00,
2013-05-27 04:23:00,38.8,35.0,29.88,South,181,2.7,2.7,86,0.00,,---,0.00,VWS V14.01,2013-05-27 10:23:00,
2013-05-27 04:25:00,39.0,35.5,29.88,SSW,196,0.0,2.7,87,0.00,,---,0.00,VWS V14.01,2013-05-27 10:25:00,
2013-05-27 04:26:00,39.0,35.5,29.88,SSW,196,0.0,2.7,87,0.00,,---,0.00,VWS V14.01,2013-05-27 10:26:00,
2013-05-27 04:27:00,39.0,35.5,29.88,SSW,196,0.0,2.7,87,0.00,,---,0.00,VWS V14.01,2013-05-27 10:27:00,
2013-05-27 04:28:00,39.2,35.7,29.88,SSW,197,0.0,2.7,87,0.00,,---,0.00,VWS V14.01,2013-05-27 10:28:00,
2013-05-27 04:30:00,39.2,35.7,29.88,SSW,197,0.0,2.7,87,0.00,,---,0.00,VWS V14.01,2013-05-27 10:30:00,
2013-05-27 04:31:00,39.2,35.7,29.88,SSW,197,0.0,0.0,87,0.00,,---,0.00,VWS V14.01,2013-05-27 10:31:00,
2013-05-27 04:32:00,39.2,35.7,29.88,SSW,196,0.0,0.0,87,0.00,,---,0.00,VWS V14.01,2013-05-27 10:32:00,
2013-05-27 04:33:00,39.2,35.7,29.88,SSW,196,2.2,2.2,87,0.00,,---,0.00,VWS V14.01,2013-05-27 10:33:00,
2013-05-27 04:35:00,39.2,35.7,29.88,SSW,197,0.0,3.1,87,0.00,,---,0.00,VWS V14.01,2013-05-27 10:35:00,
2013-05-27 04:36:00,39.4,35.8,29.88,SSW,197,0.0,3.1,87,0.00,,---,0.00,VWS V14.01,2013-05-27 10:36:00,
2013-05-27 04:37:00,39.4,36.1,29.88,SSW,197,0.0,3.1,88,0.00,,---,0.00,VWS V14.01,2013-05-27 10:37:00,
2013-05-27 04:38:00,39.4,36.1,29.88,SSW,197,0.0,3.1,88,0.00,,---,0.00,VWS V14.01,2013-05-27 10:38:00,
2013-05-27 04:40:00,39.4,36.1,29.88,SSW,197,0.0,3.1,88,0.00,,---,0.00,VWS V14.01,2013-05-27 10:40:00,
2013-05-27 04:41:00,39.2,36.0,29.88,SSW,196,0.0,3.1,88,0.00,,---,0.00,VWS V14.01,2013-05-27 10:41:00,
2013-05-27 04:43:00,39.2,36.0,29.88,SSW,196,3.1,3.1,88,0.00,,---,0.00,VWS V14.01,2013-05-27 10:43:00,
2013-05-27 04:45:00,39.4,36.1,29.88,SSW,197,0.0,3.1,88,0.00,,---,0.00,VWS V14.01,2013-05-27 10:45:00,
2013-05-27 04:46:00,39.4,36.1,29.88,SSW,197,0.0,0.0,88,0.00,,---,0.00,VWS V14.01,2013-05-27 10:46:00,
2013-05-27 04:48:00,39.6,36.3,29.88,SSW,197,0.0,0.0,88,0.00,,---,0.00,VWS V14.01,2013-05-27 10:48:00,
2013-05-27 04:49:00,39.7,36.8,29.88,SSW,197,0.0,2.2,89,0.00,,---,0.00,VWS V14.01,2013-05-27 10:49:00,
2013-05-27 04:51:00,39.7,36.8,29.88,SSW,197,0.0,2.2,89,0.00,,---,0.00,VWS V14.01,2013-05-27 10:51:00,
2013-05-27 04:53:00,39.9,37.0,29.88,SSW,197,0.0,2.2,89,0.00,,---,0.00,VWS V14.01,2013-05-27 10:53:00,
2013-05-27 04:54:00,39.9,37.0,29.88,SSW,197,0.0,2.2,89,0.00,,---,0.00,VWS V14.01,2013-05-27 10:54:00,
2013-05-27 04:56:00,39.9,37.0,29.88,SSW,197,0.0,2.2,89,0.00,,---,0.00,VWS V14.01,2013-05-27 10:56:00,
2013-05-27 04:58:00,39.9,37.2,29.88,SSW,197,0.0,2.2,90,0.00,,---,0.00,VWS V14.01,2013-05-27 10:58:00,
2013-05-27 04:59:00,39.9,37.2,29.88,SSW,197,0.0,2.2,90,0.00,,---,0.00,VWS V14.01,2013-05-27 10:59:00,
2013-05-27 05:01:00,39.9,37.2,29.88,SSW,197,0.0,0.0,90,0.00,,---,0.00,VWS V14.01,2013-05-27 11:01:00,
2013-05-27 05:03:00,40.1,37.4,29.88,SSW,196,0.0,0.0,90,0.00,,---,0.00,VWS V14.01,2013-05-27 11:03:00,
2013-05-27 05:04:00,40.1,37.4,29.88,SSW,197,0.0,0.0,90,0.00,,---,0.00,VWS V14.01,2013-05-27 11:04:00,
2013-05-27 05:06:00,40.1,37.4,29.88,SSW,197,0.0,0.0,90,0.00,,---,0.00,VWS V14.01,2013-05-27 11:06:00,
2013-05-27 05:08:00,40.3,37.9,29.88,SSW,197,0.0,0.0,91,0.00,,---,0.00,VWS V14.01,2013-05-27 11:08:00,
2013-05-27 05:09:00,40.3,37.9,29.88,SSW,197,0.0,0.0,91,0.00,,---,0.00,VWS V14.01,2013-05-27 11:09:00,
2013-05-27 05:10:00,40.3,37.9,29.88,SSW,197,0.0,0.0,91,0.00,,---,0.00,VWS V14.01,2013-05-27 11:10:00,
2013-05-27 05:11:00,40.3,37.9,29.88,SSW,197,0.0,0.0,91,0.00,,---,0.00,VWS V14.01,2013-05-27 11:11:00,
2013-05-27 05:13:00,40.3,37.9,29.88,SSW,197,0.0,0.0,91,0.00,,---,0.00,VWS V14.01,2013-05-27 11:13:00,
2013-05-27 05:14:00,40.5,38.0,29.88,SSW,197,0.0,0.0,91,0.00,,---,0.00,VWS V14.01,2013-05-27 11:14:00,
2013-05-27 05:15:00,40.5,38.0,29.88,SSW,197,0.0,0.0,91,0.00,,---,0.00,VWS V14.01,2013-05-27 11:15:00,
2013-05-27 05:16:00,40.5,38.0,29.88,SSW,197,0.0,0.0,91,0.00,,---,0.00,VWS V14.01,2013-05-27 11:16:00,
2013-05-27 05:19:00,40.5,38.0,29.85,SSW,197,0.0,0.0,91,0.00,,---,0.00,VWS V14.01,2013-05-27 11:19:00,
2013-05-27 05:20:00,40.5,38.0,29.85,SSW,197,0.0,0.0,91,0.00,,---,0.00,VWS V14.01,2013-05-27 11:20:00,
2013-05-27 05:21:00,40.5,38.0,29.85,SSW,197,0.0,0.0,91,0.00,,---,0.00,VWS V14.01,2013-05-27 11:21:00,
2013-05-27 05:22:00,40.5,38.0,29.85,SSW,196,0.0,0.0,91,0.00,,---,0.00,VWS V14.01,2013-05-27 11:22:00,
2013-05-27 05:24:00,40.5,38.0,29.85,SSW,197,0.0,0.0,91,0.00,,---,0.00,VWS V14.01,2013-05-27 11:24:00,
2013-05-27 05:25:00,40.6,38.2,29.85,SSW,197,0.0,0.0,91,0.00,,---,0.00,VWS V14.01,2013-05-27 11:25:00,
2013-05-27 05:26:00,40.6,38.2,29.85,SSW,197,0.0,0.0,91,0.00,,---,0.00,VWS V14.01,2013-05-27 11:26:00,
2013-05-27 05:27:00,40.6,38.2,29.85,SSW,197,0.0,0.0,91,0.00,,---,0.00,VWS V14.01,2013-05-27 11:27:00,
2013-05-27 05:29:00,40.6,38.2,29.85,South,188,0.0,2.2,91,0.00,,---,0.00,VWS V14.01,2013-05-27 11:29:00,
2013-05-27 05:30:00,40.6,38.2,29.85,South,191,4.0,4.0,91,0.00,,---,0.00,VWS V14.01,2013-05-27 11:30:00,
2013-05-27 05:32:00,40.6,38.2,29.85,South,188,0.0,2.2,91,0.00,,---,0.00,VWS V14.01,2013-05-27 11:32:00,
2013-05-27 05:34:00,40.6,38.2,29.85,South,188,0.0,2.2,91,0.00,,---,0.00,VWS V14.01,2013-05-27 11:34:00,
2013-05-27 05:35:00,40.6,38.2,29.85,South,188,2.2,2.2,91,0.00,,---,0.00,VWS V14.01,2013-05-27 11:35:00,
2013-05-27 05:37:00,40.5,38.0,29.85,South,188,0.0,2.2,91,0.00,,---,0.00,VWS V14.01,2013-05-27 11:37:00,
2013-05-27 05:39:00,40.6,38.2,29.85,SSW,195,2.2,3.1,91,0.00,,---,0.00,VWS V14.01,2013-05-27 11:39:00,
2013-05-27 05:40:00,40.6,38.2,29.85,South,187,2.7,3.1,91,0.00,,---,0.00,VWS V14.01,2013-05-27 11:40:00,
2013-05-27 05:42:00,40.8,38.4,29.85,SSW,195,5.4,5.4,91,0.00,,---,0.00,VWS V14.01,2013-05-27 11:42:00,
2013-05-27 05:45:00,41.2,39.0,29.85,SSW,193,3.6,5.4,92,0.00,,---,0.00,VWS V14.01,2013-05-27 11:45:00,
2013-05-27 05:46:00,41.2,39.0,29.85,SSW,195,5.4,6.3,92,0.00,,---,0.00,VWS V14.01,2013-05-27 11:46:00,
2013-05-27 05:47:00,41.5,39.4,29.88,SSW,199,2.7,6.3,92,0.00,,---,0.00,VWS V14.01,2013-05-27 11:47:00,
2013-05-27 05:50:00,41.7,39.8,29.88,South,176,2.2,6.3,93,0.00,,---,0.00,VWS V14.01,2013-05-27 11:50:00,
2013-05-27 05:51:00,41.9,40.0,29.88,South,187,2.7,6.3,93,0.00,,---,0.00,VWS V14.01,2013-05-27 11:51:00,
2013-05-27 05:52:00,42.1,40.2,29.88,South,186,0.0,6.3,93,0.00,,---,0.00,VWS V14.01,2013-05-27 11:52:00,
2013-05-27 05:53:00,42.1,40.2,29.88,South,186,0.0,6.3,93,0.00,,---,0.00,VWS V14.01,2013-05-27 11:53:00,
2013-05-27 05:55:00,42.1,40.2,29.88,South,180,0.0,6.3,93,0.00,,---,0.00,VWS V14.01,2013-05-27 11:55:00,
2013-05-27 05:56:00,42.3,40.4,29.88,South,180,0.0,6.3,93,0.00,,---,0.00,VWS V14.01,2013-05-27 11:56:00,
2013-05-27 05:57:00,42.3,40.4,29.88,South,180,0.0,6.3,93,0.00,,---,0.00,VWS V14.01,2013-05-27 11:57:00,
2013-05-27 05:58:00,42.3,40.4,29.88,South,180,0.0,6.3,93,0.00,,---,0.00,VWS V14.01,2013-05-27 11:58:00,
2013-05-27 06:00:00,42.3,40.4,29.88,South,180,0.0,6.3,93,0.00,,---,0.00,VWS V14.01,2013-05-27 12:00:00,
2013-05-27 06:01:00,42.3,40.4,29.88,South,180,0.0,0.0,93,0.00,,---,0.00,VWS V14.01,2013-05-27 12:01:00,
2013-05-27 06:03:00,42.4,40.6,29.85,South,180,0.0,0.0,93,0.00,,---,0.00,VWS V14.01,2013-05-27 12:03:00,
2013-05-27 06:05:00,42.4,40.6,29.85,South,176,2.7,2.7,93,0.00,,---,0.00,VWS V14.01,2013-05-27 12:05:00,
2013-05-27 06:06:00,42.6,40.7,29.85,South,191,3.6,3.6,93,0.00,,---,0.00,VWS V14.01,2013-05-27 12:06:00,
2013-05-27 06:07:00,42.8,40.6,29.85,SSW,193,2.2,3.6,92,0.00,,---,0.00,VWS V14.01,2013-05-27 12:07:00,
2013-05-27 06:08:00,42.8,40.6,29.85,SSW,193,2.7,3.6,92,0.00,,---,0.00,VWS V14.01,2013-05-27 12:08:00,
2013-05-27 06:10:00,43.0,40.8,29.85,SSW,194,3.1,3.6,92,0.00,,---,0.00,VWS V14.01,2013-05-27 12:10:00,
2013-05-27 06:11:00,43.0,40.8,29.85,SSW,199,4.0,4.0,92,0.00,,---,0.00,VWS V14.01,2013-05-27 12:11:00,
2013-05-27 06:12:00,43.2,41.0,29.85,South,187,3.1,4.0,92,0.00,,---,0.00,VWS V14.01,2013-05-27 12:12:00,
2013-05-27 06:13:00,43.3,41.2,29.85,SSW,194,3.1,4.0,92,0.00,,---,0.00,VWS V14.01,2013-05-27 12:13:00,
2013-05-27 06:16:00,43.5,41.3,29.85,SSW,194,2.2,2.7,92,0.00,,---,0.00,VWS V14.01,2013-05-27 12:16:00,
2013-05-27 06:17:00,43.5,41.3,29.85,SSW,194,2.7,2.7,92,0.00,,---,0.00,VWS V14.01,2013-05-27 12:17:00,
2013-05-27 06:19:00,43.7,41.2,29.85,SSW,193,2.7,2.7,91,0.00,,---,0.00,VWS V14.01,2013-05-27 12:19:00,
2013-05-27 06:21:00,43.7,41.0,29.85,SSW,192,2.7,3.6,90,0.00,,---,0.00,VWS V14.01,2013-05-27 12:21:00,
2013-05-27 06:22:00,43.7,41.0,29.85,SSW,194,3.1,3.6,90,0.00,,---,0.00,VWS V14.01,2013-05-27 12:22:00,
2013-05-27 06:24:00,43.9,40.8,29.85,SSW,194,3.1,3.6,89,0.00,,---,0.00,VWS V14.01,2013-05-27 12:24:00,
2013-05-27 06:27:00,44.1,40.5,29.85,SSW,193,2.7,3.6,87,0.00,,---,0.00,VWS V14.01,2013-05-27 12:27:00,
2013-05-27 06:29:00,44.1,40.2,29.85,SSW,196,4.0,4.0,86,0.00,,---,0.00,VWS V14.01,2013-05-27 12:29:00,
2013-05-27 06:32:00,44.1,39.5,29.85,SSW,199,3.1,4.0,84,0.00,,---,0.00,VWS V14.01,2013-05-27 12:32:00,
2013-05-27 06:33:00,44.1,39.5,29.85,SSW,198,2.7,4.0,84,0.00,,---,0.00,VWS V14.01,2013-05-27 12:33:00,
2013-05-27 06:34:00,44.2,39.7,29.85,SSW,198,3.1,4.0,84,0.00,,---,0.00,VWS V14.01,2013-05-27 12:34:00,
2013-05-27 06:35:00,44.2,39.4,29.85,SSW,198,2.7,4.0,83,0.00,,---,0.00,VWS V14.01,2013-05-27 12:35:00,
2013-05-27 06:37:00,44.1,38.9,29.85,SSW,196,3.6,5.8,82,0.00,,---,0.00,VWS V14.01,2013-05-27 12:37:00,
2013-05-27 06:38:00,44.1,38.3,29.85,SSW,196,2.7,5.8,80,0.00,,---,0.00,VWS V14.01,2013-05-27 12:38:00,
2013-05-27 06:39:00,44.1,38.0,29.85,SSW,197,3.6,5.8,79,0.00,,---,0.00,VWS V14.01,2013-05-27 12:39:00,
2013-05-27 06:40:00,44.1,38.0,29.85,SSW,197,3.1,5.8,79,0.00,,---,0.00,VWS V14.01,2013-05-27 12:40:00,
2013-05-27 06:42:00,44.2,38.2,29.85,SSW,197,2.2,5.8,79,0.00,,---,0.00,VWS V14.01,2013-05-27 12:42:00,
2013-05-27 06:43:00,44.2,38.2,29.85,SSW,197,2.7,5.8,79,0.00,,---,0.00,VWS V14.01,2013-05-27 12:43:00,
2013-05-27 06:44:00,44.2,38.2,29.85,SSW,200,3.1,5.8,79,0.00,,---,0.00,VWS V14.01,2013-05-27 12:44:00,
2013-05-27 06:45:00,44.4,38.3,29.85,SSW,198,2.7,5.8,79,0.00,,---,0.00,VWS V14.01,2013-05-27 12:45:00,
2013-05-27 06:47:00,44.4,38.3,29.88,SSW,198,0.0,2.7,79,0.00,,---,0.00,VWS V14.01,2013-05-27 12:47:00,
2013-05-27 06:48:00,44.4,38.3,29.88,SSW,198,0.0,2.7,79,0.00,,---,0.00,VWS V14.01,2013-05-27 12:48:00,
2013-05-27 06:49:00,44.6,38.2,29.88,SSW,198,0.0,2.7,78,0.00,,---,0.00,VWS V14.01,2013-05-27 12:49:00,
2013-05-27 06:51:00,44.6,38.2,29.88,SSW,198,0.0,2.7,78,0.00,,---,0.00,VWS V14.01,2013-05-27 12:51:00,
2013-05-27 06:52:00,44.6,38.2,29.88,SSW,198,0.0,2.7,78,0.00,,---,0.00,VWS V14.01,2013-05-27 12:52:00,
2013-05-27 06:53:00,44.6,38.2,29.88,SSW,198,0.0,2.7,78,0.00,,---,0.00,VWS V14.01,2013-05-27 12:53:00,
2013-05-27 06:55:00,44.6,38.2,29.88,SSW,198,0.0,2.7,78,0.00,,---,0.00,VWS V14.01,2013-05-27 12:55:00,
2013-05-27 06:56:00,44.6,38.5,29.88,SSW,198,0.0,2.7,79,0.00,,---,0.00,VWS V14.01,2013-05-27 12:56:00,
2013-05-27 06:58:00,44.6,38.5,29.88,SSW,198,0.0,2.7,79,0.00,,---,0.00,VWS V14.01,2013-05-27 12:58:00,
2013-05-27 07:00:00,44.6,38.5,29.88,SSW,198,0.0,2.7,79,0.00,,---,0.00,VWS V14.01,2013-05-27 13:00:00,
2013-05-27 07:01:00,44.4,38.3,29.85,SSW,198,0.0,0.0,79,0.00,,---,0.00,VWS V14.01,2013-05-27 13:01:00,
2013-05-27 07:03:00,44.2,38.2,29.85,SSW,198,0.0,0.0,79,0.00,,---,0.00,VWS V14.01,2013-05-27 13:03:00,
2013-05-27 07:05:00,44.2,38.2,29.85,SSW,198,0.0,0.0,79,0.00,,---,0.00,VWS V14.01,2013-05-27 13:05:00,
2013-05-27 07:07:00,44.2,38.2,29.85,SSW,198,0.0,0.0,79,0.00,,---,0.00,VWS V14.01,2013-05-27 13:07:00,
2013-05-27 07:08:00,44.2,38.2,29.85,SSW,198,0.0,0.0,79,0.00,,---,0.00,VWS V14.01,2013-05-27 13:08:00,
2013-05-27 07:11:00,44.1,38.0,29.85,SSW,198,0.0,0.0,79,0.00,,---,0.00,VWS V14.01,2013-05-27 13:11:00,
2013-05-27 07:12:00,44.1,38.0,29.85,SSW,198,0.0,0.0,79,0.00,,---,0.00,VWS V14.01,2013-05-27 13:12:00,
2013-05-27 07:13:00,44.1,38.3,29.85,SSW,198,0.0,0.0,80,0.00,,---,0.00,VWS V14.01,2013-05-27 13:13:00,
2013-05-27 07:14:00,44.1,38.3,29.85,SSW,198,0.0,0.0,80,0.00,,---,0.00,VWS V14.01,2013-05-27 13:14:00,
2013-05-27 07:16:00,44.1,38.3,29.85,SSW,198,2.7,3.1,80,0.00,,---,0.00,VWS V14.01,2013-05-27 13:16:00,
2013-05-27 07:17:00,44.1,38.3,29.85,SSW,198,2.2,3.1,80,0.00,,---,0.00,VWS V14.01,2013-05-27 13:17:00,
2013-05-27 07:19:00,44.1,38.3,29.85,SSW,198,0.0,3.1,80,0.00,,---,0.00,VWS V14.01,2013-05-27 13:19:00,
2013-05-27 07:21:00,44.1,38.3,29.85,SSW,198,0.0,3.1,80,0.00,,---,0.00,VWS V14.01,2013-05-27 13:21:00,
2013-05-27 07:22:00,44.2,38.5,29.85,SSW,198,0.0,3.1,80,0.00,,---,0.00,VWS V14.01,2013-05-27 13:22:00,
2013-05-27 07:24:00,44.2,38.8,29.85,SSW,198,2.2,3.1,81,0.00,,---,0.00,VWS V14.01,2013-05-27 13:24:00,
2013-05-27 07:25:00,44.2,38.8,29.85,SSW,198,2.2,3.1,81,0.00,,---,0.00,VWS V14.01,2013-05-27 13:25:00,
2013-05-27 07:27:00,44.2,38.8,29.85,SSW,198,2.7,3.1,81,0.00,,---,0.00,VWS V14.01,2013-05-27 13:27:00,
2013-05-27 07:29:00,44.4,39.0,29.85,SSW,198,3.1,3.1,81,0.00,,---,0.00,VWS V14.01,2013-05-27 13:29:00,
2013-05-27 07:30:00,44.4,39.0,29.85,SSW,198,2.2,3.1,81,0.00,,---,0.00,VWS V14.01,2013-05-27 13:30:00,
2013-05-27 07:32:00,44.6,39.1,29.85,SSW,198,0.0,2.2,81,0.00,,---,0.00,VWS V14.01,2013-05-27 13:32:00,
2013-05-27 07:33:00,44.6,39.1,29.85,SSW,198,0.0,2.2,81,0.00,,---,0.00,VWS V14.01,2013-05-27 13:33:00,
2013-05-27 07:34:00,44.8,39.3,29.85,SSW,198,0.0,2.2,81,0.00,,---,0.00,VWS V14.01,2013-05-27 13:34:00,
2013-05-27 07:35:00,44.8,39.3,29.85,SSW,198,0.0,2.2,81,0.00,,---,0.00,VWS V14.01,2013-05-27 13:35:00,
2013-05-27 07:37:00,45.0,39.5,29.85,SSW,198,0.0,2.2,81,0.00,,---,0.00,VWS V14.01,2013-05-27 13:37:00,
2013-05-27 07:38:00,45.0,39.5,29.85,SSW,198,0.0,2.2,81,0.00,,---,0.00,VWS V14.01,2013-05-27 13:38:00,
2013-05-27 07:40:00,45.1,39.7,29.85,SSW,198,0.0,2.2,81,0.00,,---,0.00,VWS V14.01,2013-05-27 13:40:00,
2013-05-27 07:41:00,45.1,39.7,29.85,SSW,198,0.0,2.2,81,0.00,,---,0.00,VWS V14.01,2013-05-27 13:41:00,
2013-05-27 07:42:00,45.1,39.7,29.85,SSW,198,2.7,3.1,81,0.00,,---,0.00,VWS V14.01,2013-05-27 13:42:00,
2013-05-27 07:44:00,45.1,39.7,29.85,SSW,198,2.7,3.1,81,0.00,,---,0.00,VWS V14.01,2013-05-27 13:44:00,
2013-05-27 07:45:00,45.1,39.7,29.85,SSW,198,3.1,3.6,81,0.00,,---,0.00,VWS V14.01,2013-05-27 13:45:00,
2013-05-27 07:46:00,45.3,39.5,29.85,SSW,198,2.2,2.2,80,0.00,,---,0.00,VWS V14.01,2013-05-27 13:46:00,
2013-05-27 07:47:00,45.3,39.5,29.85,SSW,198,0.0,2.7,80,0.00,,---,0.00,VWS V14.01,2013-05-27 13:47:00,
2013-05-27 07:49:00,45.3,39.8,29.85,SSW,198,0.0,2.7,81,0.00,,---,0.00,VWS V14.01,2013-05-27 13:49:00,
2013-05-27 07:50:00,45.3,39.8,29.85,SSW,198,0.0,2.7,81,0.00,,---,0.00,VWS V14.01,2013-05-27 13:50:00,
2013-05-27 07:51:00,45.5,40.0,29.85,SSW,198,0.0,2.7,81,0.00,,---,0.00,VWS V14.01,2013-05-27 13:51:00,
2013-05-27 07:53:00,45.5,40.0,29.85,SSW,198,0.0,2.7,81,0.00,,---,0.00,VWS V14.01,2013-05-27 13:53:00,
2013-05-27 07:54:00,45.5,40.0,29.85,SSW,198,0.0,2.7,81,0.00,,---,0.00,VWS V14.01,2013-05-27 13:54:00,
2013-05-27 07:56:00,45.7,39.9,29.85,SSW,198,0.0,2.7,80,0.00,,---,0.00,VWS V14.01,2013-05-27 13:56:00,
2013-05-27 07:58:00,45.9,40.0,29.85,SSW,198,2.2,3.1,80,0.00,,---,0.00,VWS V14.01,2013-05-27 13:58:00,
2013-05-27 07:59:00,45.9,40.0,29.85,SSW,198,2.2,3.1,80,0.00,,---,0.00,VWS V14.01,2013-05-27 13:59:00,
2013-05-27 08:01:00,45.9,40.0,29.85,SSW,198,0.0,2.2,80,0.00,,---,0.00,VWS V14.01,2013-05-27 14:01:00,
2013-05-27 08:02:00,46.0,40.2,29.85,SSW,198,0.0,2.2,80,0.00,,---,0.00,VWS V14.01,2013-05-27 14:02:00,
2013-05-27 08:03:00,46.0,40.2,29.85,SSW,198,2.2,2.7,80,0.00,,---,0.00,VWS V14.01,2013-05-27 14:03:00,
2013-05-27 08:04:00,46.0,40.2,29.85,SSW,198,2.2,2.7,80,0.00,,---,0.00,VWS V14.01,2013-05-27 14:04:00,
2013-05-27 08:06:00,46.2,40.4,29.85,SSW,198,2.2,2.7,80,0.00,,---,0.00,VWS V14.01,2013-05-27 14:06:00,
2013-05-27 08:07:00,46.2,40.4,29.85,SSW,198,0.0,2.7,80,0.00,,---,0.00,VWS V14.01,2013-05-27 14:07:00,
2013-05-27 08:08:00,46.2,40.4,29.85,SSW,198,2.2,2.7,80,0.00,,---,0.00,VWS V14.01,2013-05-27 14:08:00,
2013-05-27 08:10:00,46.2,40.1,29.85,SSW,198,2.2,2.7,79,0.00,,---,0.00,VWS V14.01,2013-05-27 14:10:00,
2013-05-27 08:11:00,46.4,40.2,29.85,SSW,198,0.0,2.7,79,0.00,,---,0.00,VWS V14.01,2013-05-27 14:11:00,
2013-05-27 08:12:00,46.4,40.2,29.85,SSW,198,0.0,2.7,79,0.00,,---,0.00,VWS V14.01,2013-05-27 14:12:00,
2013-05-27 08:13:00,46.6,40.4,29.85,SSW,198,0.0,2.7,79,0.00,,---,0.00,VWS V14.01,2013-05-27 14:13:00,
2013-05-27 08:15:00,46.6,40.4,29.85,SSW,198,0.0,2.7,79,0.00,,---,0.00,VWS V14.01,2013-05-27 14:15:00,
2013-05-27 08:16:00,46.8,40.6,29.85,SSW,198,2.2,2.2,79,0.00,,---,0.00,VWS V14.01,2013-05-27 14:16:00,
2013-05-27 08:17:00,46.9,40.8,29.85,SSW,198,0.0,2.2,79,0.00,,---,0.00,VWS V14.01,2013-05-27 14:17:00,
2013-05-27 08:18:00,47.1,41.0,29.85,SSW,198,0.0,2.2,79,0.00,,---,0.00,VWS V14.01,2013-05-27 14:18:00,
2013-05-27 08:20:00,47.3,41.1,29.85,SSW,198,0.0,2.2,79,0.00,,---,0.00,VWS V14.01,2013-05-27 14:20:00,
2013-05-27 08:21:00,47.3,41.1,29.85,SSW,198,2.2,2.2,79,0.00,,---,0.00,VWS V14.01,2013-05-27 14:21:00,
2013-05-27 08:22:00,47.3,40.8,29.85,SSW,198,2.7,3.1,78,0.00,,---,0.00,VWS V14.01,2013-05-27 14:22:00,
2013-05-27 08:24:00,47.5,40.6,29.85,SSW,198,2.2,3.1,77,0.00,,---,0.00,VWS V14.01,2013-05-27 14:24:00,
2013-05-27 08:25:00,47.5,40.6,29.85,SSW,198,0.0,3.1,77,0.00,,---,0.00,VWS V14.01,2013-05-27 14:25:00,
2013-05-27 08:26:00,47.7,40.5,29.85,SSW,198,2.7,3.1,76,0.00,,---,0.00,VWS V14.01,2013-05-27 14:26:00,
2013-05-27 08:27:00,47.7,40.5,29.85,SSW,198,0.0,3.1,76,0.00,,---,0.00,VWS V14.01,2013-05-27 14:27:00,
2013-05-27 08:29:00,47.7,40.5,29.85,SSW,198,0.0,3.1,76,0.00,,---,0.00,VWS V14.01,2013-05-27 14:29:00,
2013-05-27 08:31:00,47.8,40.7,29.85,SSW,198,0.0,0.0,76,0.00,,---,0.00,VWS V14.01,2013-05-27 14:31:00,
2013-05-27 08:32:00,48.0,40.8,29.85,SSW,198,0.0,2.2,76,0.00,,---,0.00,VWS V14.01,2013-05-27 14:32:00,
2013-05-27 08:34:00,48.0,40.8,29.85,SSW,198,0.0,2.7,76,0.00,,---,0.00,VWS V14.01,2013-05-27 14:34:00,
2013-05-27 08:36:00,48.0,40.5,29.85,SSW,198,0.0,2.7,75,0.00,,---,0.00,VWS V14.01,2013-05-27 14:36:00,
2013-05-27 08:37:00,48.0,40.5,29.85,SSW,198,0.0,2.7,75,0.00,,---,0.00,VWS V14.01,2013-05-27 14:37:00,
2013-05-27 08:39:00,48.0,40.5,29.85,SSW,198,0.0,2.7,75,0.00,,---,0.00,VWS V14.01,2013-05-27 14:39:00,
2013-05-27 08:42:00,48.0,40.5,29.85,SSW,198,0.0,2.7,75,0.00,,---,0.00,VWS V14.01,2013-05-27 14:42:00,
2013-05-27 08:45:00,48.0,40.5,29.85,SSW,198,0.0,2.7,75,0.00,,---,0.00,VWS V14.01,2013-05-27 14:45:00,
2013-05-27 08:47:00,48.2,40.3,29.85,SSW,198,0.0,0.0,74,0.00,,---,0.00,VWS V14.01,2013-05-27 14:47:00,
2013-05-27 08:48:00,48.2,40.3,29.85,SSW,198,0.0,0.0,74,0.00,,---,0.00,VWS V14.01,2013-05-27 14:48:00,
2013-05-27 08:50:00,48.2,40.0,29.85,SSW,199,4.0,4.0,73,0.00,,---,0.00,VWS V14.01,2013-05-27 14:50:00,
2013-05-27 08:52:00,48.2,39.2,29.85,SSW,197,0.0,4.0,71,0.00,,---,0.00,VWS V14.01,2013-05-27 14:52:00,
2013-05-27 08:53:00,48.2,38.9,29.85,SSW,197,0.0,4.0,70,0.00,,---,0.00,VWS V14.01,2013-05-27 14:53:00,
2013-05-27 08:55:00,48.4,39.1,29.85,SSW,197,0.0,4.0,70,0.00,,---,0.00,VWS V14.01,2013-05-27 14:55:00,
2013-05-27 08:56:00,48.4,39.1,29.85,SSW,197,0.0,4.0,70,0.00,,---,0.00,VWS V14.01,2013-05-27 14:56:00,
2013-05-27 08:57:00,48.6,38.9,29.85,SSW,197,0.0,4.0,69,0.00,,---,0.00,VWS V14.01,2013-05-27 14:57:00,
2013-05-27 08:58:00,48.6,38.5,29.85,SSW,197,0.0,4.0,68,0.00,,---,0.00,VWS V14.01,2013-05-27 14:58:00,
2013-05-27 09:00:00,48.7,38.3,29.85,SSW,197,0.0,4.0,67,0.00,,---,0.00,VWS V14.01,2013-05-27 15:00:00,
2013-05-27 09:01:00,48.7,37.9,29.85,SSW,197,0.0,0.0,66,0.00,,---,0.00,VWS V14.01,2013-05-27 15:01:00,
2013-05-27 09:03:00,48.9,38.1,29.85,SSW,197,0.0,0.0,66,0.00,,---,0.00,VWS V14.01,2013-05-27 15:03:00,
2013-05-27 09:05:00,48.9,36.9,29.85,SSW,197,0.0,0.0,63,0.00,,---,0.00,VWS V14.01,2013-05-27 15:05:00,
2013-05-27 09:06:00,48.9,36.5,29.85,SSW,197,0.0,0.0,62,0.00,,---,0.00,VWS V14.01,2013-05-27 15:06:00,
2013-05-27 09:08:00,48.9,36.1,29.85,SSW,197,0.0,0.0,61,0.00,,---,0.00,VWS V14.01,2013-05-27 15:08:00,
2013-05-27 09:09:00,49.1,36.7,29.85,SSW,197,0.0,2.2,62,0.00,,---,0.00,VWS V14.01,2013-05-27 15:09:00,
2013-05-27 09:11:00,49.1,36.7,29.85,SSW,197,0.0,2.2,62,0.00,,---,0.00,VWS V14.01,2013-05-27 15:11:00,
2013-05-27 09:12:00,49.1,36.2,29.85,SSW,197,0.0,2.2,61,0.00,,---,0.00,VWS V14.01,2013-05-27 15:12:00,
2013-05-27 09:14:00,49.1,36.2,29.85,SSW,197,0.0,2.2,61,0.00,,---,0.00,VWS V14.01,2013-05-27 15:14:00,
2013-05-27 09:16:00,49.3,36.4,29.85,SSW,197,0.0,0.0,61,0.00,,---,0.00,VWS V14.01,2013-05-27 15:16:00,
2013-05-27 09:17:00,49.3,36.4,29.85,SSW,197,0.0,0.0,61,0.00,,---,0.00,VWS V14.01,2013-05-27 15:17:00,
2013-05-27 09:19:00,49.3,36.4,29.85,SSW,213,0.0,0.0,61,0.00,,---,0.00,VWS V14.01,2013-05-27 15:19:00,
2013-05-27 09:21:00,49.1,35.4,29.85,SSW,213,0.0,0.0,59,0.00,,---,0.00,VWS V14.01,2013-05-27 15:21:00,
2013-05-27 09:22:00,49.1,35.4,29.85,SSW,213,0.0,0.0,59,0.00,,---,0.00,VWS V14.01,2013-05-27 15:22:00,
2013-05-27 09:24:00,48.9,35.2,29.85,SSW,213,0.0,0.0,59,0.00,,---,0.00,VWS V14.01,2013-05-27 15:24:00,
2013-05-27 09:25:00,48.9,35.2,29.85,SW,215,0.0,0.0,59,0.00,,---,0.00,VWS V14.01,2013-05-27 15:25:00,
2013-05-27 09:27:00,48.7,34.6,29.85,SW,215,0.0,0.0,58,0.00,,---,0.00,VWS V14.01,2013-05-27 15:27:00,
2013-05-27 09:29:00,48.7,35.1,29.85,SW,214,0.0,0.0,59,0.00,,---,0.00,VWS V14.01,2013-05-27 15:29:00,
2013-05-27 09:30:00,48.7,35.1,29.85,SW,215,0.0,0.0,59,0.00,,---,0.00,VWS V14.01,2013-05-27 15:30:00,
2013-05-27 09:32:00,48.6,35.3,29.85,SW,215,0.0,0.0,60,0.00,,---,0.00,VWS V14.01,2013-05-27 15:32:00,
2013-05-27 09:35:00,48.6,35.3,29.85,SW,214,0.0,0.0,60,0.00,,---,0.00,VWS V14.01,2013-05-27 15:35:00,
2013-05-27 09:37:00,48.4,35.2,29.85,SW,215,0.0,0.0,60,0.00,,---,0.00,VWS V14.01,2013-05-27 15:37:00,
2013-05-27 09:40:00,48.4,35.2,29.85,SW,214,0.0,0.0,60,0.00,,---,0.00,VWS V14.01,2013-05-27 15:40:00,
2013-05-27 09:42:00,48.4,35.6,29.85,SW,215,0.0,0.0,61,0.00,,---,0.00,VWS V14.01,2013-05-27 15:42:00,
2013-05-27 09:43:00,48.4,35.6,29.85,SW,214,0.0,0.0,61,0.00,,---,0.00,VWS V14.01,2013-05-27 15:43:00,
2013-05-27 09:45:00,48.4,35.6,29.85,SW,215,0.0,0.0,61,0.00,,---,0.00,VWS V14.01,2013-05-27 15:45:00,
2013-05-27 09:46:00,48.6,35.7,29.85,SW,215,0.0,0.0,61,0.00,,---,0.00,VWS V14.01,2013-05-27 15:46:00,
2013-05-27 09:47:00,48.6,35.7,29.85,SW,215,0.0,0.0,61,0.00,,---,0.00,VWS V14.01,2013-05-27 15:47:00,
2013-05-27 09:48:00,48.6,35.7,29.85,SW,214,0.0,0.0,61,0.00,,---,0.00,VWS V14.01,2013-05-27 15:48:00,
2013-05-27 09:50:00,48.7,36.3,29.85,SW,215,0.0,0.0,62,0.00,,---,0.00,VWS V14.01,2013-05-27 15:50:00,
2013-05-27 09:51:00,48.7,36.3,29.85,SW,215,0.0,0.0,62,0.00,,---,0.00,VWS V14.01,2013-05-27 15:51:00,
2013-05-27 09:52:00,48.9,36.5,29.85,SW,215,0.0,0.0,62,0.00,,---,0.00,VWS V14.01,2013-05-27 15:52:00,
2013-05-27 09:53:00,48.9,36.9,29.85,SW,215,0.0,0.0,63,0.00,,---,0.00,VWS V14.01,2013-05-27 15:53:00,
2013-05-27 09:55:00,49.1,37.1,29.85,SW,215,0.0,0.0,63,0.00,,---,0.00,VWS V14.01,2013-05-27 15:55:00,
2013-05-27 09:56:00,49.1,37.1,29.85,SW,215,0.0,0.0,63,0.00,,---,0.00,VWS V14.01,2013-05-27 15:56:00,
2013-05-27 09:58:00,49.3,37.2,29.85,SW,215,0.0,0.0,63,0.00,,---,0.00,VWS V14.01,2013-05-27 15:58:00,
2013-05-27 10:00:00,49.5,37.0,29.85,South,169,0.0,3.1,62,0.00,,---,0.00,VWS V14.01,2013-05-27 16:00:00,
2013-05-27 10:01:00,49.3,36.0,29.85,SW,215,2.2,2.2,60,0.00,,---,0.00,VWS V14.01,2013-05-27 16:01:00,
2013-05-27 10:03:00,49.3,34.7,29.85,SW,218,0.0,2.2,57,0.00,,---,0.00,VWS V14.01,2013-05-27 16:03:00,
2013-05-27 10:06:00,49.5,35.3,29.85,SW,218,0.0,2.2,58,0.00,,---,0.00,VWS V14.01,2013-05-27 16:06:00,
2013-05-27 10:08:00,49.3,34.7,29.85,SW,218,0.0,2.2,57,0.00,,---,0.00,VWS V14.01,2013-05-27 16:08:00,
2013-05-27 10:09:00,49.3,34.7,29.85,SW,218,0.0,2.2,57,0.00,,---,0.00,VWS V14.01,2013-05-27 16:09:00,
2013-05-27 10:11:00,49.3,34.7,29.85,SW,218,0.0,2.2,57,0.00,,---,0.00,VWS V14.01,2013-05-27 16:11:00,
2013-05-27 10:13:00,49.3,35.1,29.85,West,273,0.0,3.1,58,0.00,,---,0.00,VWS V14.01,2013-05-27 16:13:00,
2013-05-27 10:14:00,49.3,36.0,29.85,West,281,2.2,3.1,60,0.00,,---,0.00,VWS V14.01,2013-05-27 16:14:00,
2013-05-27 10:16:00,49.3,36.8,29.85,West,281,0.0,0.0,62,0.00,,---,0.00,VWS V14.01,2013-05-27 16:16:00,
2013-05-27 10:18:00,49.1,37.5,29.85,West,281,0.0,0.0,64,0.00,,---,0.00,VWS V14.01,2013-05-27 16:18:00,
2013-05-27 10:19:00,49.1,37.9,29.85,West,281,0.0,0.0,65,0.00,,---,0.00,VWS V14.01,2013-05-27 16:19:00,
2013-05-27 10:21:00,49.1,38.2,29.85,West,281,0.0,0.0,66,0.00,,---,0.00,VWS V14.01,2013-05-27 16:21:00,
2013-05-27 10:22:00,49.1,38.2,29.85,West,281,0.0,0.0,66,0.00,,---,0.00,VWS V14.01,2013-05-27 16:22:00,
2013-05-27 10:24:00,48.9,37.7,29.85,NNW,341,0.0,2.7,65,0.00,,---,0.00,VWS V14.01,2013-05-27 16:24:00,
2013-05-27 10:27:00,48.9,37.7,29.85,North,353,0.0,2.7,65,0.00,,---,0.00,VWS V14.01,2013-05-27 16:27:00,
2013-05-27 10:29:00,48.9,37.3,29.85,NNW,344,0.0,2.7,64,0.00,,---,0.00,VWS V14.01,2013-05-27 16:29:00,
2013-05-27 10:30:00,48.9,37.3,29.85,NNW,344,0.0,2.7,64,0.00,,---,0.00,VWS V14.01,2013-05-27 16:30:00,
2013-05-27 10:32:00,48.9,37.3,29.85,NNW,344,0.0,0.0,64,0.00,,---,0.00,VWS V14.01,2013-05-27 16:32:00,
2013-05-27 10:35:00,48.9,36.9,29.85,NNW,344,0.0,0.0,63,0.00,,---,0.00,VWS V14.01,2013-05-27 16:35:00,
2013-05-27 10:37:00,48.9,37.3,29.85,NNW,344,0.0,0.0,64,0.00,,---,0.00,VWS V14.01,2013-05-27 16:37:00,
2013-05-27 10:40:00,48.7,37.1,29.85,NNW,344,0.0,0.0,64,0.00,,---,0.00,VWS V14.01,2013-05-27 16:40:00,
2013-05-27 10:42:00,48.7,37.1,29.85,NNW,344,0.0,2.7,64,0.00,,---,0.00,VWS V14.01,2013-05-27 16:42:00,
2013-05-27 10:45:00,48.6,37.0,29.85,NNW,344,0.0,2.7,64,0.00,,---,0.00,VWS V14.01,2013-05-27 16:45:00,
2013-05-27 10:46:00,48.6,37.0,29.85,North,357,2.7,3.1,64,0.00,,---,0.00,VWS V14.01,2013-05-27 16:46:00,
2013-05-27 10:47:00,48.6,37.3,29.85,North,357,2.7,3.1,65,0.00,,---,0.00,VWS V14.01,2013-05-27 16:47:00,
2013-05-27 10:50:00,48.4,37.2,29.85,North,3,2.7,3.1,65,0.00,,---,0.00,VWS V14.01,2013-05-27 16:50:00,
2013-05-27 10:51:00,48.4,37.6,29.85,NNW,346,2.2,3.1,66,0.00,,---,0.00,VWS V14.01,2013-05-27 16:51:00,
2013-05-27 10:52:00,48.4,37.2,29.85,NNW,346,0.0,3.1,65,0.00,,---,0.00,VWS V14.01,2013-05-27 16:52:00,
2013-05-27 10:53:00,48.2,37.0,29.85,NNW,346,0.0,3.1,65,0.00,,---,0.00,VWS V14.01,2013-05-27 16:53:00,
2013-05-27 10:55:00,48.2,37.0,29.85,NNW,346,0.0,3.1,65,0.00,,---,0.00,VWS V14.01,2013-05-27 16:55:00,
2013-05-27 10:56:00,48.2,37.0,29.85,NNW,346,3.1,3.1,65,0.00,,---,0.00,VWS V14.01,2013-05-27 16:56:00,
2013-05-27 10:57:00,48.2,37.4,29.85,NNE,18,4.0,5.8,66,0.00,,---,0.00,VWS V14.01,2013-05-27 16:57:00,
2013-05-27 10:58:00,48.0,36.8,29.85,NNW,337,2.2,5.8,65,0.00,,---,0.00,VWS V14.01,2013-05-27 16:58:00,
2013-05-27 11:01:00,47.8,36.7,29.85,NNW,340,2.2,2.7,65,0.00,,---,0.00,VWS V14.01,2013-05-27 17:01:00,
2013-05-27 11:02:00,47.7,36.9,29.88,North,353,2.2,3.6,66,0.00,,---,0.00,VWS V14.01,2013-05-27 17:02:00,
2013-05-27 11:04:00,47.7,37.3,29.88,North,353,0.0,3.6,67,0.00,,---,0.00,VWS V14.01,2013-05-27 17:04:00,
2013-05-27 11:06:00,47.5,37.5,29.88,North,353,0.0,3.6,68,0.04,,---,0.04,VWS V14.01,2013-05-27 17:06:00,
2013-05-27 11:07:00,47.7,38.0,29.88,North,353,0.0,3.6,69,0.04,,---,0.04,VWS V14.01,2013-05-27 17:07:00,
2013-05-27 11:08:00,47.7,38.4,29.88,North,353,0.0,3.6,70,0.04,,---,0.04,VWS V14.01,2013-05-27 17:08:00,
2013-05-27 11:09:00,47.7,38.4,29.88,North,353,0.0,3.6,70,0.04,,---,0.04,VWS V14.01,2013-05-27 17:09:00,
2013-05-27 11:11:00,47.7,38.7,29.88,North,357,2.2,3.6,71,0.04,,---,0.04,VWS V14.01,2013-05-27 17:11:00,
2013-05-27 11:13:00,47.7,39.8,29.88,NNE,15,2.7,3.6,74,0.04,,---,0.04,VWS V14.01,2013-05-27 17:13:00,
2013-05-27 11:14:00,47.7,39.8,29.88,NNE,15,0.0,3.6,74,0.04,,---,0.04,VWS V14.01,2013-05-27 17:14:00,
2013-05-27 11:16:00,47.7,39.8,29.88,NNE,15,0.0,0.0,74,0.04,,---,0.04,VWS V14.01,2013-05-27 17:16:00,
2013-05-27 11:17:00,47.7,39.8,29.88,NNE,15,0.0,0.0,74,0.04,,---,0.04,VWS V14.01,2013-05-27 17:17:00,
2013-05-27 11:18:00,47.8,40.3,29.88,NNE,15,0.0,0.0,75,0.04,,---,0.04,VWS V14.01,2013-05-27 17:18:00,
2013-05-27 11:19:00,47.8,40.3,29.88,NNE,15,0.0,0.0,75,0.04,,---,0.04,VWS V14.01,2013-05-27 17:19:00,
2013-05-27 11:21:00,48.0,40.8,29.88,NNE,15,0.0,0.0,76,0.04,,---,0.04,VWS V14.01,2013-05-27 17:21:00,
2013-05-27 11:22:00,48.0,40.8,29.88,NNE,15,0.0,0.0,76,0.04,,---,0.04,VWS V14.01,2013-05-27 17:22:00,
2013-05-27 11:23:00,48.2,41.0,29.88,NNE,15,0.0,0.0,76,0.04,,---,0.04,VWS V14.01,2013-05-27 17:23:00,
2013-05-27 11:24:00,48.2,41.0,29.88,NNE,15,0.0,0.0,76,0.04,,---,0.04,VWS V14.01,2013-05-27 17:24:00,
2013-05-27 11:26:00,48.4,41.2,29.88,South,175,2.7,2.7,76,0.04,,---,0.04,VWS V14.01,2013-05-27 17:26:00,
2013-05-27 11:27:00,48.4,41.2,29.88,SSW,194,2.7,2.7,76,0.04,,---,0.04,VWS V14.01,2013-05-27 17:27:00,
2013-05-27 11:28:00,48.6,41.3,29.88,SSW,192,2.2,3.1,76,0.04,,---,0.04,VWS V14.01,2013-05-27 17:28:00,
2013-05-27 11:29:00,48.6,41.3,29.88,SSW,192,2.2,3.1,76,0.04,,---,0.04,VWS V14.01,2013-05-27 17:29:00,
2013-05-27 11:31:00,48.6,41.0,29.88,SSE,152,0.0,2.2,75,0.04,,---,0.04,VWS V14.01,2013-05-27 17:31:00,
2013-05-27 11:32:00,48.7,41.2,29.88,South,186,2.2,2.2,75,0.04,,---,0.04,VWS V14.01,2013-05-27 17:32:00,
2013-05-27 11:33:00,48.7,41.2,29.88,SSW,196,0.0,2.2,75,0.04,,---,0.04,VWS V14.01,2013-05-27 17:33:00,
2013-05-27 11:34:00,48.7,41.2,29.88,South,182,0.0,2.2,75,0.04,,---,0.04,VWS V14.01,2013-05-27 17:34:00,
2013-05-27 11:36:00,48.9,41.4,29.88,South,176,2.7,2.7,75,0.04,,---,0.04,VWS V14.01,2013-05-27 17:36:00,
2013-05-27 11:37:00,48.9,41.4,29.88,South,177,2.7,2.7,75,0.04,,---,0.04,VWS V14.01,2013-05-27 17:37:00,
2013-05-27 11:39:00,49.1,41.5,29.88,South,180,2.2,2.7,75,0.04,,---,0.04,VWS V14.01,2013-05-27 17:39:00,
2013-05-27 11:42:00,49.3,42.0,29.88,SSE,167,2.2,2.7,76,0.04,,---,0.04,VWS V14.01,2013-05-27 17:42:00,
2013-05-27 11:44:00,49.6,42.4,29.88,South,169,2.2,2.7,76,0.04,,---,0.04,VWS V14.01,2013-05-27 17:44:00,
2013-05-27 11:47:00,50.2,42.9,29.88,SE,140,0.0,2.7,76,0.04,,---,0.04,VWS V14.01,2013-05-27 17:47:00,
2013-05-27 11:49:00,50.4,43.1,29.88,South,184,2.2,2.7,76,0.04,,---,0.04,VWS V14.01,2013-05-27 17:49:00,
2013-05-27 11:50:00,50.4,43.1,29.88,South,179,0.0,2.7,76,0.04,,---,0.04,VWS V14.01,2013-05-27 17:50:00,
2013-05-27 11:52:00,50.7,43.4,29.88,SE,128,0.0,3.1,76,0.04,,---,0.04,VWS V14.01,2013-05-27 17:52:00,
2013-05-27 11:53:00,50.9,43.3,29.88,South,178,2.2,4.0,75,0.04,,---,0.04,VWS V14.01,2013-05-27 17:53:00,
2013-05-27 11:54:00,50.9,42.9,29.88,South,181,2.7,4.0,74,0.04,,---,0.04,VWS V14.01,2013-05-27 17:54:00,
2013-05-27 11:55:00,50.7,42.0,29.88,SSW,193,2.7,4.0,72,0.04,,---,0.04,VWS V14.01,2013-05-27 17:55:00,
2013-05-27 11:57:00,50.9,42.2,29.88,SSE,162,2.2,4.0,72,0.04,,---,0.04,VWS V14.01,2013-05-27 17:57:00,
2013-05-27 11:59:00,51.4,42.7,29.88,South,185,3.1,4.0,72,0.04,,---,0.04,VWS V14.01,2013-05-27 17:59:00,
2013-05-27 12:00:00,51.4,42.7,29.88,South,185,2.2,4.0,72,0.04,,---,0.04,VWS V14.01,2013-05-27 18:00:00,
2013-05-27 12:03:00,52.0,42.9,29.88,ESE,117,2.7,2.7,71,0.04,,---,0.04,VWS V14.01,2013-05-27 18:03:00,
2013-05-27 12:04:00,52.2,43.1,29.88,SE,135,0.0,3.1,71,0.04,,---,0.04,VWS V14.01,2013-05-27 18:04:00,
2013-05-27 12:05:00,52.3,43.2,29.88,SE,135,0.0,3.1,71,0.04,,---,0.04,VWS V14.01,2013-05-27 18:05:00,
2013-05-27 12:08:00,52.5,43.0,29.88,SSE,158,0.0,3.1,70,0.04,,---,0.04,VWS V14.01,2013-05-27 18:08:00,
2013-05-27 12:10:00,52.7,42.8,29.88,South,189,2.7,3.1,69,0.04,,---,0.04,VWS V14.01,2013-05-27 18:10:00,
2013-05-27 12:13:00,52.3,38.0,29.88,South,191,3.1,4.0,58,0.04,,---,0.04,VWS V14.01,2013-05-27 18:13:00,
2013-05-27 12:15:00,52.3,38.0,29.88,South,190,2.7,4.0,58,0.04,,---,0.04,VWS V14.01,2013-05-27 18:15:00,
2013-05-27 12:18:00,53.1,40.0,29.88,SSE,157,2.2,2.7,61,0.00,,---,0.04,VWS V14.01,2013-05-27 18:18:00,
2013-05-27 12:20:00,53.1,40.0,29.88,SSE,157,0.0,2.7,61,0.00,,---,0.04,VWS V14.01,2013-05-27 18:20:00,
2013-05-27 12:21:00,53.4,40.7,29.88,SSE,159,2.7,2.7,62,0.00,,---,0.04,VWS V14.01,2013-05-27 18:21:00,
2013-05-27 12:24:00,53.4,38.6,29.88,SSW,196,0.0,4.0,57,0.00,,---,0.04,VWS V14.01,2013-05-27 18:24:00,
2013-05-27 12:25:00,53.4,38.6,29.88,SSW,210,2.7,4.0,57,0.00,,---,0.04,VWS V14.01,2013-05-27 18:25:00,
2013-05-27 12:26:00,53.4,38.6,29.88,West,279,3.1,4.0,57,0.00,,---,0.04,VWS V14.01,2013-05-27 18:26:00,
2013-05-27 12:29:00,53.6,37.8,29.88,WNW,295,3.1,4.0,55,0.00,,---,0.04,VWS V14.01,2013-05-27 18:29:00,
2013-05-27 12:30:00,53.6,36.4,29.88,WNW,297,3.1,4.0,52,0.00,,---,0.04,VWS V14.01,2013-05-27 18:30:00,
2013-05-27 12:31:00,53.6,35.4,29.88,West,264,2.7,3.6,50,0.00,,---,0.04,VWS V14.01,2013-05-27 18:31:00,
2013-05-27 12:34:00,54.5,37.2,29.88,South,190,6.3,6.3,52,0.00,,---,0.04,VWS V14.01,2013-05-27 18:34:00,
2013-05-27 12:35:00,54.3,34.5,29.88,South,191,2.7,6.3,47,0.00,,---,0.04,VWS V14.01,2013-05-27 18:35:00,
2013-05-27 12:36:00,54.7,34.9,29.88,WNW,285,2.7,6.3,47,0.00,,---,0.04,VWS V14.01,2013-05-27 18:36:00,
2013-05-27 12:39:00,54.9,35.0,29.88,WNW,284,2.7,6.3,47,0.00,,---,0.04,VWS V14.01,2013-05-27 18:39:00,
2013-05-27 12:40:00,55.0,34.1,29.88,SW,222,3.6,6.3,45,0.00,,---,0.04,VWS V14.01,2013-05-27 18:40:00,
2013-05-27 12:41:00,55.0,33.5,29.88,WSW,237,2.7,6.3,44,0.00,,---,0.04,VWS V14.01,2013-05-27 18:41:00,
2013-05-27 12:44:00,55.9,34.9,29.88,SSW,211,3.1,6.3,45,0.00,,---,0.04,VWS V14.01,2013-05-27 18:44:00,
2013-05-27 12:45:00,55.9,34.4,29.88,SW,236,2.7,6.3,44,0.00,,---,0.04,VWS V14.01,2013-05-27 18:45:00,
2013-05-27 12:46:00,56.3,36.3,29.88,WSW,237,0.0,3.1,47,0.00,,---,0.04,VWS V14.01,2013-05-27 18:46:00,
2013-05-27 12:47:00,56.1,35.6,29.85,SSW,194,3.6,3.6,46,0.00,,---,0.04,VWS V14.01,2013-05-27 18:47:00,
2013-05-27 12:50:00,55.9,32.6,29.85,WNW,291,0.0,4.0,41,0.00,,---,0.04,VWS V14.01,2013-05-27 18:50:00,
2013-05-27 12:51:00,55.9,32.6,29.85,WNW,291,0.0,4.0,41,0.00,,---,0.04,VWS V14.01,2013-05-27 18:51:00,
2013-05-27 12:52:00,55.8,32.4,29.85,NNW,330,2.7,4.0,41,0.00,,---,0.04,VWS V14.01,2013-05-27 18:52:00,
2013-05-27 12:55:00,55.6,34.6,29.85,WNW,297,2.7,4.0,45,0.00,,---,0.04,VWS V14.01,2013-05-27 18:55:00,
2013-05-27 12:56:00,55.4,33.9,29.85,NW,326,2.7,4.0,44,0.00,,---,0.04,VWS V14.01,2013-05-27 18:56:00,
2013-05-27 12:57:00,55.2,32.5,29.85,NW,316,2.2,4.0,42,0.00,,---,0.04,VWS V14.01,2013-05-27 18:57:00,
2013-05-27 13:01:00,54.7,32.1,29.85,NNW,332,0.0,2.2,42,0.00,,---,0.04,VWS V14.01,2013-05-27 19:01:00,
2013-05-27 13:02:00,54.7,32.1,29.85,NNW,332,2.2,2.7,42,0.00,,---,0.04,VWS V14.01,2013-05-27 19:02:00,
2013-05-27 13:06:00,55.2,34.3,29.85,West,271,2.2,2.7,45,0.00,,---,0.04,VWS V14.01,2013-05-27 19:06:00,
2013-05-27 13:07:00,55.4,32.7,29.85,WNW,298,2.7,3.6,42,0.00,,---,0.04,VWS V14.01,2013-05-27 19:07:00,
2013-05-27 13:11:00,56.5,34.3,29.85,SW,230,2.7,3.6,43,0.00,,---,0.04,VWS V14.01,2013-05-27 19:11:00,
2013-05-27 13:13:00,56.8,32.8,29.85,South,170,3.1,4.0,40,0.00,,---,0.04,VWS V14.01,2013-05-27 19:13:00,
2013-05-27 13:16:00,56.8,31.5,29.85,South,171,3.1,4.0,38,0.00,,---,0.04,VWS V14.01,2013-05-27 19:16:00,
2013-05-27 13:18:00,56.8,32.2,29.85,ESE,111,2.7,4.0,39,0.00,,---,0.04,VWS V14.01,2013-05-27 19:18:00,
2013-05-27 13:21:00,57.2,35.5,29.85,ESE,114,4.5,4.5,44,0.00,,---,0.04,VWS V14.01,2013-05-27 19:21:00,
2013-05-27 13:23:00,57.6,35.2,29.85,North,11,2.2,4.5,43,0.00,,---,0.04,VWS V14.01,2013-05-27 19:23:00,
2013-05-27 13:26:00,57.9,36.2,29.85,North,353,3.1,4.9,44,0.00,,---,0.04,VWS V14.01,2013-05-27 19:26:00,
2013-05-27 13:27:00,57.9,35.6,29.85,North,357,3.6,4.9,43,0.00,,---,0.04,VWS V14.01,2013-05-27 19:27:00,
2013-05-27 13:28:00,57.7,34.2,29.85,NNE,31,4.0,4.9,41,0.00,,---,0.04,VWS V14.01,2013-05-27 19:28:00,
2013-05-27 13:31:00,57.0,32.3,29.85,East,93,3.1,4.0,39,0.00,,---,0.04,VWS V14.01,2013-05-27 19:31:00,
2013-05-27 13:32:00,57.0,31.7,29.85,East,97,4.0,4.0,38,0.00,,---,0.04,VWS V14.01,2013-05-27 19:32:00,
2013-05-27 13:33:00,56.8,31.5,29.85,South,190,2.7,4.0,38,0.00,,---,0.04,VWS V14.01,2013-05-27 19:33:00,
2013-05-27 13:37:00,56.3,31.7,29.85,SW,235,3.1,4.0,39,0.00,,---,0.04,VWS V14.01,2013-05-27 19:37:00,
2013-05-27 13:38:00,55.9,32.0,29.85,North,353,0.0,4.0,40,0.00,,---,0.04,VWS V14.01,2013-05-27 19:38:00,
2013-05-27 13:42:00,55.6,32.3,29.85,NW,320,3.6,4.0,41,0.00,,---,0.04,VWS V14.01,2013-05-27 19:42:00,
2013-05-27 13:43:00,55.6,32.3,29.85,WNW,292,3.1,4.0,41,0.00,,---,0.04,VWS V14.01,2013-05-27 19:43:00,
2013-05-27 13:44:00,55.6,32.3,29.85,NNE,19,4.9,4.9,41,0.00,,---,0.04,VWS V14.01,2013-05-27 19:44:00,
2013-05-27 13:47:00,55.6,31.7,29.85,ENE,71,0.0,2.2,40,0.00,,---,0.04,VWS V14.01,2013-05-27 19:47:00,
2013-05-27 13:48:00,55.6,31.7,29.85,ENE,71,0.0,2.2,40,0.00,,---,0.04,VWS V14.01,2013-05-27 19:48:00,
2013-05-27 13:49:00,55.6,31.7,29.85,ENE,71,0.0,2.2,40,0.00,,---,0.04,VWS V14.01,2013-05-27 19:49:00,
2013-05-27 13:53:00,55.9,30.7,29.85,WNW,299,0.0,2.7,38,0.00,,---,0.04,VWS V14.01,2013-05-27 19:53:00,
2013-05-27 13:54:00,56.3,31.0,29.85,WNW,299,2.2,2.7,38,0.00,,---,0.04,VWS V14.01,2013-05-27 19:54:00,
2013-05-27 13:58:00,56.8,31.5,29.85,North,357,3.1,4.0,38,0.00,,---,0.04,VWS V14.01,2013-05-27 19:58:00,
2013-05-27 13:59:00,57.0,31.7,29.85,NNW,343,0.0,4.0,38,0.00,,---,0.04,VWS V14.01,2013-05-27 19:59:00,
2013-05-27 14:03:00,57.9,31.8,29.85,SSW,204,3.1,3.1,37,0.00,,---,0.04,VWS V14.01,2013-05-27 20:03:00,
2013-05-27 14:04:00,57.9,31.8,29.85,SSW,204,2.7,3.1,37,0.00,,---,0.04,VWS V14.01,2013-05-27 20:04:00,
2013-05-27 14:05:00,58.1,32.0,29.85,SSW,200,4.5,4.9,37,0.00,,---,0.04,VWS V14.01,2013-05-27 20:05:00,
2013-05-27 14:08:00,58.1,30.6,29.85,West,277,0.0,4.9,35,0.00,,---,0.04,VWS V14.01,2013-05-27 20:08:00,
2013-05-27 14:09:00,58.1,31.3,29.85,NNW,338,2.7,4.9,36,0.00,,---,0.04,VWS V14.01,2013-05-27 20:09:00,
2013-05-27 14:10:00,58.1,30.6,29.85,NNE,16,2.7,4.9,35,0.00,,---,0.04,VWS V14.01,2013-05-27 20:10:00,
2013-05-27 14:14:00,57.4,30.7,29.85,ESE,106,3.1,4.9,36,0.00,,---,0.04,VWS V14.01,2013-05-27 20:14:00,
2013-05-27 14:15:00,57.2,31.8,29.85,North,357,3.6,4.9,38,0.00,,---,0.04,VWS V14.01,2013-05-27 20:15:00,
2013-05-27 14:19:00,56.3,35.2,29.85,ENE,71,0.0,3.6,45,0.00,,---,0.04,VWS V14.01,2013-05-27 20:19:00,
2013-05-27 14:20:00,56.3,34.7,29.85,East,84,2.2,3.6,44,0.00,,---,0.04,VWS V14.01,2013-05-27 20:20:00,
2013-05-27 14:24:00,55.8,34.2,29.85,South,176,0.0,3.6,44,0.00,,---,0.04,VWS V14.01,2013-05-27 20:24:00,
2013-05-27 14:25:00,55.8,34.2,29.85,South,176,2.2,3.6,44,0.00,,---,0.04,VWS V14.01,2013-05-27 20:25:00,
2013-05-27 14:29:00,55.9,33.8,29.85,ESE,112,2.7,4.5,43,0.00,,---,0.04,VWS V14.01,2013-05-27 20:29:00,
2013-05-27 14:30:00,55.9,33.2,29.85,ESE,117,0.0,4.5,42,0.00,,---,0.04,VWS V14.01,2013-05-27 20:30:00,
2013-05-27 14:31:00,56.1,33.4,29.85,ESE,117,0.0,0.0,42,0.00,,---,0.04,VWS V14.01,2013-05-27 20:31:00,
2013-05-27 14:34:00,56.3,32.9,29.85,ESE,117,2.7,2.7,41,0.00,,---,0.04,VWS V14.01,2013-05-27 20:34:00,
2013-05-27 14:35:00,56.3,32.9,29.85,ESE,117,2.7,2.7,41,0.00,,---,0.04,VWS V14.01,2013-05-27 20:35:00,
2013-05-27 14:36:00,56.5,33.7,29.85,ESE,120,2.7,2.7,42,0.00,,---,0.04,VWS V14.01,2013-05-27 20:36:00,
2013-05-27 14:39:00,56.7,32.6,29.85,ESE,106,3.1,3.1,40,0.00,,---,0.04,VWS V14.01,2013-05-27 20:39:00,
2013-05-27 14:40:00,56.7,32.0,29.85,ESE,106,0.0,3.1,39,0.00,,---,0.04,VWS V14.01,2013-05-27 20:40:00,
2013-05-27 14:41:00,56.7,31.4,29.85,ESE,106,0.0,3.1,38,0.00,,---,0.04,VWS V14.01,2013-05-27 20:41:00,
2013-05-27 14:45:00,56.7,31.4,29.85,NW,311,3.1,3.1,38,0.00,,---,0.04,VWS V14.01,2013-05-27 20:45:00,
2013-05-27 14:46:00,56.7,35.0,29.85,North,2,8.1,8.1,44,0.00,,---,0.04,VWS V14.01,2013-05-27 20:46:00,
2013-05-27 14:47:00,56.7,35.0,29.85,North,0,5.8,8.1,44,0.00,,---,0.04,VWS V14.01,2013-05-27 20:47:00,
2013-05-27 14:50:00,55.6,35.7,29.85,NNE,15,5.8,10.1,47,0.00,,---,0.04,VWS V14.01,2013-05-27 20:50:00,
2013-05-27 14:52:00,54.9,35.6,29.85,NNE,22,4.9,10.1,48,0.00,,---,0.04,VWS V14.01,2013-05-27 20:52:00,
2013-05-27 14:55:00,54.0,35.8,29.85,East,87,2.2,10.1,50,0.00,,---,0.04,VWS V14.01,2013-05-27 20:55:00,
2013-05-27 14:57:00,53.8,36.1,29.85,NNE,15,3.6,10.1,51,0.00,,---,0.04,VWS V14.01,2013-05-27 20:57:00,
2013-05-27 14:58:00,53.8,36.1,29.85,NNE,21,3.6,10.1,51,0.00,,---,0.04,VWS V14.01,2013-05-27 20:58:00,
2013-05-27 15:00:00,54.0,37.2,29.85,NNE,14,4.5,10.1,53,0.00,,---,0.04,VWS V14.01,2013-05-27 21:00:00,
2013-05-27 15:02:00,54.3,37.6,29.85,NE,37,5.8,5.8,53,0.00,,---,0.04,VWS V14.01,2013-05-27 21:02:00,
2013-05-27 15:03:00,54.5,37.7,29.85,NNE,15,6.3,6.3,53,0.00,,---,0.04,VWS V14.01,2013-05-27 21:03:00,
2013-05-27 15:05:00,55.0,38.2,29.85,North,4,5.8,9.2,53,0.00,,---,0.04,VWS V14.01,2013-05-27 21:05:00,
2013-05-27 15:07:00,55.2,36.4,29.85,NNE,13,5.4,10.1,49,0.00,,---,0.04,VWS V14.01,2013-05-27 21:07:00,
2013-05-27 15:08:00,55.4,36.6,29.85,North,11,5.8,10.1,49,0.00,,---,0.04,VWS V14.01,2013-05-27 21:08:00,
2013-05-27 15:10:00,55.6,36.7,29.85,North,357,5.4,10.1,49,0.00,,---,0.04,VWS V14.01,2013-05-27 21:10:00,
2013-05-27 15:12:00,55.9,37.1,29.85,NNE,16,5.8,10.1,49,0.00,,---,0.04,VWS V14.01,2013-05-27 21:12:00,
2013-05-27 15:13:00,55.9,36.5,29.85,North,357,8.7,10.1,48,0.00,,---,0.04,VWS V14.01,2013-05-27 21:13:00,
2013-05-27 15:15:00,55.9,36.0,29.85,North,353,5.4,10.1,47,0.00,,---,0.04,VWS V14.01,2013-05-27 21:15:00,
2013-05-27 15:17:00,55.6,35.7,29.85,North,357,6.3,8.1,47,0.00,,---,0.04,VWS V14.01,2013-05-27 21:17:00,
2013-05-27 15:18:00,55.2,36.4,29.85,NNE,13,4.0,8.1,49,0.00,,---,0.04,VWS V14.01,2013-05-27 21:18:00,
2013-05-27 15:19:00,55.2,36.4,29.85,NNE,13,3.6,8.1,49,0.00,,---,0.04,VWS V14.01,2013-05-27 21:19:00,
2013-05-27 15:20:00,55.2,36.4,29.85,NNE,18,4.0,8.1,49,0.00,,---,0.04,VWS V14.01,2013-05-27 21:20:00,
2013-05-27 15:22:00,55.2,36.9,29.85,ENE,77,2.7,8.1,50,0.00,,---,0.04,VWS V14.01,2013-05-27 21:22:00,
2013-05-27 15:23:00,55.4,37.1,29.85,NNE,24,4.0,8.1,50,0.00,,---,0.04,VWS V14.01,2013-05-27 21:23:00,
2013-05-27 15:24:00,55.4,36.6,29.85,NE,34,4.9,8.1,49,0.00,,---,0.04,VWS V14.01,2013-05-27 21:24:00,
2013-05-27 15:25:00,55.6,36.7,29.85,NNE,29,3.6,8.1,49,0.00,,---,0.04,VWS V14.01,2013-05-27 21:25:00,
2013-05-27 15:26:00,55.6,36.7,29.85,NNE,18,3.1,8.1,49,0.00,,---,0.04,VWS V14.01,2013-05-27 21:26:00,
2013-05-27 15:28:00,55.8,36.9,29.85,ENE,73,5.4,8.1,49,0.00,,---,0.04,VWS V14.01,2013-05-27 21:28:00,
2013-05-27 15:29:00,55.9,37.1,29.85,East,83,3.1,8.1,49,0.00,,---,0.04,VWS V14.01,2013-05-27 21:29:00,
2013-05-27 15:31:00,56.1,37.8,29.85,NNE,21,2.7,3.6,50,0.00,,---,0.04,VWS V14.01,2013-05-27 21:31:00,
2013-05-27 15:33:00,56.1,36.7,29.85,North,9,5.4,8.1,48,0.00,,---,0.04,VWS V14.01,2013-05-27 21:33:00,
2013-05-27 15:34:00,56.1,36.2,29.85,NNE,12,6.3,8.1,47,0.00,,---,0.04,VWS V14.01,2013-05-27 21:34:00,
2013-05-27 15:36:00,56.1,36.7,29.85,North,2,4.0,8.1,48,0.00,,---,0.04,VWS V14.01,2013-05-27 21:36:00,
2013-05-27 15:39:00,56.1,36.2,29.85,North,0,7.6,8.1,47,0.00,,---,0.04,VWS V14.01,2013-05-27 21:39:00,
2013-05-27 15:41:00,56.1,35.6,29.85,North,6,4.9,8.1,46,0.00,,---,0.04,VWS V14.01,2013-05-27 21:41:00,
2013-05-27 15:42:00,55.9,35.5,29.85,NNE,17,4.0,8.1,46,0.00,,---,0.04,VWS V14.01,2013-05-27 21:42:00,
2013-05-27 15:44:00,55.9,36.0,29.85,NNE,24,4.9,8.1,47,0.00,,---,0.04,VWS V14.01,2013-05-27 21:44:00,
2013-05-27 15:46:00,55.9,35.5,29.85,North,8,5.8,5.8,46,0.00,,---,0.04,VWS V14.01,2013-05-27 21:46:00,
2013-05-27 15:47:00,56.1,35.6,29.85,North,3,6.3,6.3,46,0.00,,---,0.04,VWS V14.01,2013-05-27 21:47:00,
2013-05-27 15:49:00,56.1,35.6,29.85,NE,55,4.0,8.3,46,0.00,,---,0.04,VWS V14.01,2013-05-27 21:49:00,
2013-05-27 15:52:00,56.1,35.6,29.85,North,5,5.4,8.3,46,0.00,,---,0.04,VWS V14.01,2013-05-27 21:52:00,
2013-05-27 15:54:00,56.3,35.8,29.85,North,8,5.4,8.3,46,0.00,,---,0.04,VWS V14.01,2013-05-27 21:54:00,
2013-05-27 15:55:00,56.3,35.8,29.85,NNE,24,2.2,8.3,46,0.00,,---,0.04,VWS V14.01,2013-05-27 21:55:00,
2013-05-27 15:57:00,56.1,35.6,29.85,North,4,4.9,8.3,46,0.00,,---,0.04,VWS V14.01,2013-05-27 21:57:00,
2013-05-27 15:59:00,55.9,34.9,29.85,North,0,4.5,8.3,45,0.00,,---,0.04,VWS V14.01,2013-05-27 21:59:00,
2013-05-27 16:00:00,55.9,34.9,29.85,North,349,4.0,8.3,45,0.00,,---,0.04,VWS V14.01,2013-05-27 22:00:00,
2013-05-27 16:02:00,55.8,35.3,29.85,North,349,6.3,8.3,46,0.00,,---,0.04,VWS V14.01,2013-05-27 22:02:00,
2013-05-27 16:04:00,55.6,35.2,29.85,NNE,17,4.0,8.3,46,0.00,,---,0.04,VWS V14.01,2013-05-27 22:04:00,
2013-05-27 16:05:00,55.6,35.2,29.85,NNE,17,4.0,8.3,46,0.00,,---,0.04,VWS V14.01,2013-05-27 22:05:00,
2013-05-27 16:07:00,55.9,36.5,29.85,NNE,22,3.1,8.3,48,0.00,,---,0.04,VWS V14.01,2013-05-27 22:07:00,
2013-05-27 16:09:00,56.1,35.6,29.85,North,8,3.1,8.3,46,0.00,,---,0.04,VWS V14.01,2013-05-27 22:09:00,
2013-05-27 16:10:00,56.3,35.2,29.85,NE,45,5.8,8.3,45,0.00,,---,0.04,VWS V14.01,2013-05-27 22:10:00,
2013-05-27 16:11:00,56.3,34.7,29.85,NNW,344,2.7,8.3,44,0.00,,---,0.04,VWS V14.01,2013-05-27 22:11:00,
2013-05-27 16:12:00,56.3,34.7,29.85,North,357,3.1,8.3,44,0.00,,---,0.04,VWS V14.01,2013-05-27 22:12:00,
2013-05-27 16:13:00,56.3,34.1,29.85,NNE,14,5.4,8.3,43,0.00,,---,0.04,VWS V14.01,2013-05-27 22:13:00,
2013-05-27 16:14:00,56.3,34.1,29.85,North,3,3.1,8.3,43,0.00,,---,0.04,VWS V14.01,2013-05-27 22:14:00,
2013-05-27 16:15:00,56.3,34.7,29.85,North,11,2.7,2.7,44,0.00,,---,0.04,VWS V14.01,2013-05-27 22:15:00,
2013-05-27 16:16:00,56.3,34.7,29.85,North,357,4.9,5.4,44,0.00,,---,0.04,VWS V14.01,2013-05-27 22:16:00,
2013-05-27 16:17:00,56.3,34.1,29.85,North,10,5.4,5.4,43,0.00,,---,0.04,VWS V14.01,2013-05-27 22:17:00,
2013-05-27 16:18:00,56.3,34.1,29.85,NE,48,3.6,5.8,43,0.00,,---,0.04,VWS V14.01,2013-05-27 22:18:00,
2013-05-27 16:19:00,56.3,34.7,29.85,North,0,4.9,5.8,44,0.00,,---,0.04,VWS V14.01,2013-05-27 22:19:00,
2013-05-27 16:20:00,56.5,35.4,29.85,NNE,19,3.1,5.8,45,0.00,,---,0.04,VWS V14.01,2013-05-27 22:20:00,
2013-05-27 16:21:00,56.5,36.0,29.85,ENE,62,0.0,5.8,46,0.00,,---,0.04,VWS V14.01,2013-05-27 22:21:00,
2013-05-27 16:22:00,56.5,35.4,29.85,North,11,5.8,5.8,45,0.00,,---,0.04,VWS V14.01,2013-05-27 22:22:00,
2013-05-27 16:23:00,56.5,35.4,29.85,NNE,12,4.0,5.8,45,0.00,,---,0.04,VWS V14.01,2013-05-27 22:23:00,
2013-05-27 16:25:00,56.8,35.7,29.85,NE,46,2.7,5.8,45,0.00,,---,0.04,VWS V14.01,2013-05-27 22:25:00,
2013-05-27 16:26:00,57.0,34.8,29.85,NE,46,2.7,5.8,43,0.00,,---,0.04,VWS V14.01,2013-05-27 22:26:00,
2013-05-27 16:27:00,57.0,35.3,29.85,NE,46,0.0,5.8,44,0.00,,---,0.04,VWS V14.01,2013-05-27 22:27:00,
2013-05-27 16:28:00,57.0,35.3,29.85,NE,46,3.1,5.8,44,0.00,,---,0.04,VWS V14.01,2013-05-27 22:28:00,
2013-05-27 16:31:00,57.4,35.1,29.82,ESE,111,5.4,5.4,43,0.00,,---,0.04,VWS V14.01,2013-05-27 22:31:00,
2013-05-27 16:33:00,57.6,35.2,29.82,East,82,0.0,5.4,43,0.00,,---,0.04,VWS V14.01,2013-05-27 22:33:00,
2013-05-27 16:36:00,58.1,33.9,29.82,North,0,3.1,5.4,40,0.00,,---,0.04,VWS V14.01,2013-05-27 22:36:00,
2013-05-27 16:38:00,58.5,34.9,29.82,NNE,24,3.1,5.4,41,0.00,,---,0.04,VWS V14.01,2013-05-27 22:38:00,
2013-05-27 16:42:00,58.5,34.2,29.82,NNE,21,3.6,5.4,40,0.00,,---,0.04,VWS V14.01,2013-05-27 22:42:00,
2013-05-27 16:43:00,58.5,34.2,29.82,NNE,16,4.0,5.4,40,0.00,,---,0.04,VWS V14.01,2013-05-27 22:43:00,
2013-05-27 16:47:00,58.5,33.6,29.82,East,93,2.7,4.9,39,0.00,,---,0.04,VWS V14.01,2013-05-27 22:47:00,
2013-05-27 16:48:00,58.6,33.8,29.82,NNE,29,0.0,4.9,39,0.00,,---,0.04,VWS V14.01,2013-05-27 22:48:00,
2013-05-27 16:49:00,58.6,33.8,29.82,NNE,29,0.0,4.9,39,0.00,,---,0.04,VWS V14.01,2013-05-27 22:49:00,
2013-05-27 16:52:00,59.0,32.8,29.82,North,357,2.7,4.9,37,0.00,,---,0.04,VWS V14.01,2013-05-27 22:52:00,
2013-05-27 16:54:00,59.2,33.0,29.82,East,91,2.7,4.9,37,0.00,,---,0.04,VWS V14.01,2013-05-27 22:54:00,
2013-05-27 16:57:00,59.5,33.3,29.82,SE,124,2.7,4.9,37,0.00,,---,0.04,VWS V14.01,2013-05-27 22:57:00,
2013-05-27 16:59:00,59.9,33.6,29.82,ESE,114,2.2,4.9,37,0.00,,---,0.04,VWS V14.01,2013-05-27 22:59:00,
2013-05-27 17:02:00,59.9,32.2,29.82,North,3,4.0,6.3,35,0.00,,---,0.04,VWS V14.01,2013-05-27 23:02:00,
2013-05-27 17:04:00,59.7,32.7,29.82,North,10,3.1,6.3,36,0.00,,---,0.04,VWS V14.01,2013-05-27 23:04:00,
2013-05-27 17:08:00,59.7,32.7,29.82,North,11,3.1,6.3,36,0.00,,---,0.04,VWS V14.01,2013-05-27 23:08:00,
2013-05-27 17:09:00,59.7,32.7,29.82,North,357,2.7,6.3,36,0.00,,---,0.04,VWS V14.01,2013-05-27 23:09:00,
2013-05-27 17:13:00,59.7,32.7,29.82,NNE,22,4.9,6.3,36,0.00,,---,0.04,VWS V14.01,2013-05-27 23:13:00,
2013-05-27 17:14:00,59.7,32.7,29.82,SE,141,3.1,6.3,36,0.00,,---,0.04,VWS V14.01,2013-05-27 23:14:00,
2013-05-27 17:15:00,59.7,32.7,29.82,ESE,110,3.1,6.3,36,0.00,,---,0.04,VWS V14.01,2013-05-27 23:15:00,
2013-05-27 17:18:00,60.1,33.8,29.82,North,357,4.0,4.0,37,0.00,,---,0.04,VWS V14.01,2013-05-27 23:18:00,
2013-05-27 17:19:00,60.3,33.2,29.82,North,10,2.2,5.4,36,0.00,,---,0.04,VWS V14.01,2013-05-27 23:19:00,
2013-05-27 17:20:00,60.3,33.2,29.82,North,10,3.1,5.4,36,0.00,,---,0.04,VWS V14.01,2013-05-27 23:20:00,
2013-05-27 17:23:00,60.3,33.2,29.82,NNE,19,4.0,5.8,36,0.00,,---,0.04,VWS V14.01,2013-05-27 23:23:00,
2013-05-27 17:24:00,60.3,33.2,29.82,North,1,4.5,5.8,36,0.00,,---,0.04,VWS V14.01,2013-05-27 23:24:00,
2013-05-27 17:25:00,60.1,33.1,29.82,North,357,4.9,5.8,36,0.00,,---,0.04,VWS V14.01,2013-05-27 23:25:00,
2013-05-27 17:26:00,60.1,33.1,29.82,NNE,22,3.6,5.8,36,0.00,,---,0.04,VWS V14.01,2013-05-27 23:26:00,
2013-05-27 17:29:00,60.3,33.2,29.82,NNE,13,3.1,5.8,36,0.00,,---,0.04,VWS V14.01,2013-05-27 23:29:00,
2013-05-27 17:30:00,60.3,33.2,29.82,North,0,5.4,5.8,36,0.00,,---,0.04,VWS V14.01,2013-05-27 23:30:00,
2013-05-27 17:31:00,60.3,33.2,29.82,North,353,4.9,4.9,36,0.00,,---,0.04,VWS V14.01,2013-05-27 23:31:00,
2013-05-27 17:34:00,60.1,33.1,29.82,North,357,4.9,4.9,36,0.00,,---,0.04,VWS V14.01,2013-05-27 23:34:00,
2013-05-27 17:35:00,60.1,32.4,29.82,North,0,4.9,5.4,35,0.00,,---,0.04,VWS V14.01,2013-05-27 23:35:00,
2013-05-27 17:36:00,60.1,33.1,29.82,North,0,3.1,5.4,36,0.00,,---,0.04,VWS V14.01,2013-05-27 23:36:00,
2013-05-27 17:39:00,60.1,33.1,29.82,North,0,2.7,5.4,36,0.00,,---,0.04,VWS V14.01,2013-05-27 23:39:00,
2013-05-27 17:40:00,60.1,33.1,29.82,North,357,4.0,5.4,36,0.00,,---,0.04,VWS V14.01,2013-05-27 23:40:00,
2013-05-27 17:42:00,60.3,33.2,29.82,NE,39,5.8,6.3,36,0.00,,---,0.04,VWS V14.01,2013-05-27 23:42:00,
2013-05-27 17:44:00,60.3,33.2,29.82,ESE,116,3.1,6.3,36,0.00,,---,0.04,VWS V14.01,2013-05-27 23:44:00,
2013-05-27 17:45:00,60.3,33.2,29.82,ESE,103,2.2,6.3,36,0.00,,---,0.04,VWS V14.01,2013-05-27 23:45:00,
2013-05-27 17:46:00,60.4,33.4,29.82,ESE,103,3.1,3.1,36,0.00,,---,0.04,VWS V14.01,2013-05-27 23:46:00,
2013-05-27 17:47:00,60.4,33.4,29.82,ESE,103,0.0,3.1,36,0.00,,---,0.04,VWS V14.01,2013-05-27 23:47:00,
2013-05-27 17:49:00,60.8,33.0,29.82,ENE,69,2.2,3.1,35,0.00,,---,0.04,VWS V14.01,2013-05-27 23:49:00,
2013-05-27 17:50:00,60.8,33.0,29.82,ENE,68,2.2,3.1,35,0.00,,---,0.04,VWS V14.01,2013-05-27 23:50:00,
2013-05-27 17:51:00,61.0,33.2,29.82,ENE,67,2.7,3.1,35,0.00,,---,0.04,VWS V14.01,2013-05-27 23:51:00,
2013-05-27 17:52:00,61.2,33.3,29.82,NNE,22,4.0,4.0,35,0.00,,---,0.04,VWS V14.01,2013-05-27 23:52:00,
2013-05-27 17:54:00,61.2,33.3,29.82,NNE,25,0.0,4.0,35,0.00,,---,0.04,VWS V14.01,2013-05-27 23:54:00,
2013-05-27 17:56:00,61.0,33.2,29.82,NNE,14,2.2,4.0,35,0.00,,---,0.04,VWS V14.01,2013-05-27 23:56:00,
2013-05-27 17:57:00,61.0,33.2,29.82,NNE,13,3.1,4.9,35,0.00,,---,0.04,VWS V14.01,2013-05-27 23:57:00,
2013-05-27 17:59:00,60.6,32.8,29.82,NE,34,3.1,4.9,35,0.00,,---,0.04,VWS V14.01,2013-05-27 23:59:00,
2013-05-27 18:01:00,60.4,32.7,29.82,NNE,19,4.9,4.9,35,0.00,,---,0.04,VWS V14.01,2013-05-28 00:01:00,
2013-05-27 18:02:00,60.4,32.7,29.82,North,8,3.6,4.9,35,0.00,,---,0.04,VWS V14.01,2013-05-28 00:02:00,
2013-05-27 18:03:00,60.1,32.4,29.82,NNE,20,3.1,4.9,35,0.00,,---,0.04,VWS V14.01,2013-05-28 00:03:00,
2013-05-27 18:04:00,59.9,32.9,29.82,NNE,33,2.7,4.9,36,0.00,,---,0.04,VWS V14.01,2013-05-28 00:04:00,
2013-05-27 18:06:00,59.5,32.6,29.82,ESE,102,2.7,4.9,36,0.00,,---,0.04,VWS V14.01,2013-05-28 00:06:00,
2013-05-27 18:07:00,59.5,32.6,29.82,East,79,0.0,4.9,36,0.00,,---,0.04,VWS V14.01,2013-05-28 00:07:00,
2013-05-27 18:09:00,59.5,32.6,29.82,ENE,76,2.7,4.9,36,0.00,,---,0.04,VWS V14.01,2013-05-28 00:09:00,
2013-05-27 18:10:00,59.7,32.7,29.82,East,94,2.7,4.9,36,0.00,,---,0.04,VWS V14.01,2013-05-28 00:10:00,
2013-05-27 18:12:00,59.7,32.7,29.82,NNE,28,2.7,4.9,36,0.00,,---,0.04,VWS V14.01,2013-05-28 00:12:00,
2013-05-27 18:13:00,59.7,32.0,29.82,ENE,64,0.0,4.9,35,0.00,,---,0.04,VWS V14.01,2013-05-28 00:13:00,
2013-05-27 18:14:00,59.7,32.7,29.82,North,4,2.7,4.9,36,0.00,,---,0.04,VWS V14.01,2013-05-28 00:14:00,
2013-05-27 18:15:00,59.7,32.7,29.82,North,8,0.0,4.9,36,0.00,,---,0.04,VWS V14.01,2013-05-28 00:15:00,
2013-05-27 18:17:00,59.7,32.7,29.82,North,4,2.7,3.6,36,0.00,,---,0.04,VWS V14.01,2013-05-28 00:17:00,
2013-05-27 18:18:00,59.7,32.7,29.82,ENE,57,2.2,3.6,36,0.00,,---,0.04,VWS V14.01,2013-05-28 00:18:00,
2013-05-27 18:20:00,59.5,32.6,29.82,NNE,15,2.2,3.6,36,0.00,,---,0.04,VWS V14.01,2013-05-28 00:20:00,
2013-05-27 18:21:00,59.7,32.7,29.82,ESE,104,4.0,4.0,36,0.00,,---,0.04,VWS V14.01,2013-05-28 00:21:00,
2013-05-27 18:22:00,59.5,32.6,29.82,ESE,104,2.7,4.0,36,0.00,,---,0.04,VWS V14.01,2013-05-28 00:22:00,
2013-05-27 18:23:00,59.7,32.7,29.82,ESE,104,0.0,4.0,36,0.00,,---,0.04,VWS V14.01,2013-05-28 00:23:00,
2013-05-27 18:25:00,60.1,33.1,29.82,NE,49,0.0,4.0,36,0.00,,---,0.04,VWS V14.01,2013-05-28 00:25:00,
2013-05-27 18:26:00,60.1,33.1,29.82,NE,53,0.0,4.0,36,0.00,,---,0.04,VWS V14.01,2013-05-28 00:26:00,
2013-05-27 18:27:00,60.3,33.2,29.82,ENE,65,0.0,4.0,36,0.00,,---,0.04,VWS V14.01,2013-05-28 00:27:00,
2013-05-27 18:28:00,60.4,33.4,29.82,ENE,70,0.0,4.0,36,0.00,,---,0.04,VWS V14.01,2013-05-28 00:28:00,
2013-05-27 18:30:00,60.6,33.5,29.82,North,6,2.7,4.0,36,0.00,,---,0.04,VWS V14.01,2013-05-28 00:30:00,
2013-05-27 18:31:00,60.6,32.8,29.82,North,0,0.0,3.6,35,0.00,,---,0.04,VWS V14.01,2013-05-28 00:31:00,
2013-05-27 18:32:00,60.4,33.4,29.82,North,7,0.0,3.6,36,0.00,,---,0.04,VWS V14.01,2013-05-28 00:32:00,
2013-05-27 18:34:00,60.4,33.4,29.82,NNE,27,3.6,4.0,36,0.00,,---,0.04,VWS V14.01,2013-05-28 00:34:00,
2013-05-27 18:35:00,60.6,33.5,29.82,NE,54,3.1,4.0,36,0.00,,---,0.04,VWS V14.01,2013-05-28 00:35:00,
2013-05-27 18:36:00,60.6,32.8,29.82,ENE,57,2.7,4.0,35,0.00,,---,0.04,VWS V14.01,2013-05-28 00:36:00,
2013-05-27 18:37:00,60.6,32.8,29.82,NE,41,2.2,4.0,35,0.00,,---,0.04,VWS V14.01,2013-05-28 00:37:00,
2013-05-27 18:39:00,60.6,32.8,29.82,NNE,21,3.6,4.9,35,0.00,,---,0.04,VWS V14.01,2013-05-28 00:39:00,
2013-05-27 18:41:00,60.6,32.8,29.82,North,0,3.6,4.9,35,0.00,,---,0.04,VWS V14.01,2013-05-28 00:41:00,
2013-05-27 18:42:00,60.4,32.7,29.82,North,0,4.0,4.9,35,0.00,,---,0.04,VWS V14.01,2013-05-28 00:42:00,
2013-05-27 18:43:00,60.3,33.2,29.82,North,5,3.1,4.9,36,0.00,,---,0.04,VWS V14.01,2013-05-28 00:43:00,
2013-05-27 18:44:00,60.3,33.2,29.82,NE,46,2.7,4.9,36,0.00,,---,0.04,VWS V14.01,2013-05-28 00:44:00,
2013-05-27 18:46:00,60.4,32.7,29.82,ENE,61,0.0,0.0,35,0.00,,---,0.04,VWS V14.01,2013-05-28 00:46:00,
2013-05-27 18:47:00,60.4,32.7,29.82,ENE,67,0.0,0.0,35,0.00,,---,0.04,VWS V14.01,2013-05-28 00:47:00,
2013-05-27 18:48:00,60.4,32.7,29.82,ENE,64,0.0,0.0,35,0.00,,---,0.04,VWS V14.01,2013-05-28 00:48:00,
2013-05-27 18:49:00,60.3,32.5,29.82,NNE,15,3.1,4.9,35,0.00,,---,0.04,VWS V14.01,2013-05-28 00:49:00,
2013-05-27 18:51:00,59.7,32.0,29.82,NNE,19,2.7,4.9,35,0.00,,---,0.04,VWS V14.01,2013-05-28 00:51:00,
2013-05-27 18:52:00,59.5,31.9,29.82,North,4,3.1,4.9,35,0.00,,---,0.04,VWS V14.01,2013-05-28 00:52:00,
2013-05-27 18:53:00,59.4,31.7,29.82,North,2,4.9,4.9,35,0.00,,---,0.04,VWS V14.01,2013-05-28 00:53:00,
2013-05-27 18:54:00,59.2,31.6,29.82,North,4,4.0,4.9,35,0.00,,---,0.04,VWS V14.01,2013-05-28 00:54:00,
2013-05-27 18:56:00,59.0,32.1,29.82,North,0,3.1,4.9,36,0.00,,---,0.04,VWS V14.01,2013-05-28 00:56:00,
2013-05-27 18:57:00,58.8,32.0,29.82,North,9,3.1,4.9,36,0.00,,---,0.04,VWS V14.01,2013-05-28 00:57:00,
2013-05-27 18:58:00,58.6,31.8,29.82,North,2,5.4,5.4,36,0.00,,---,0.04,VWS V14.01,2013-05-28 00:58:00,
2013-05-27 19:00:00,58.5,31.6,29.82,North,4,4.0,5.4,36,0.00,,---,0.04,VWS V14.01,2013-05-28 01:00:00,
2013-05-27 19:01:00,58.3,31.5,29.82,North,4,3.1,6.3,36,0.00,,---,0.04,VWS V14.01,2013-05-28 01:01:00,
2013-05-27 19:03:00,58.3,31.5,29.82,North,9,3.1,6.3,36,0.00,,---,0.04,VWS V14.01,2013-05-28 01:03:00,
2013-05-27 19:04:00,58.1,31.3,29.82,NNE,14,3.1,6.3,36,0.00,,---,0.04,VWS V14.01,2013-05-28 01:04:00,
2013-05-27 19:05:00,57.9,31.1,29.82,NNE,14,3.1,6.3,36,0.00,,---,0.04,VWS V14.01,2013-05-28 01:05:00,
2013-05-27 19:07:00,57.9,31.8,29.82,NNE,14,2.7,6.3,37,0.00,,---,0.04,VWS V14.01,2013-05-28 01:07:00,
2013-05-27 19:08:00,57.9,31.8,29.82,NNE,12,3.1,6.3,37,0.00,,---,0.04,VWS V14.01,2013-05-28 01:08:00,
2013-05-27 19:09:00,57.7,31.7,29.82,North,353,2.7,6.3,37,0.00,,---,0.04,VWS V14.01,2013-05-28 01:09:00,
2013-05-27 19:11:00,57.7,31.7,29.82,North,2,2.2,6.3,37,0.00,,---,0.04,VWS V14.01,2013-05-28 01:11:00,
2013-05-27 19:12:00,57.6,31.5,29.82,North,8,3.1,6.3,37,0.00,,---,0.04,VWS V14.01,2013-05-28 01:12:00,
2013-05-27 19:13:00,57.6,31.5,29.82,North,8,2.2,6.3,37,0.00,,---,0.04,VWS V14.01,2013-05-28 01:13:00,
2013-05-27 19:14:00,57.6,31.5,29.82,North,8,2.7,6.3,37,0.00,,---,0.04,VWS V14.01,2013-05-28 01:14:00,
2013-05-27 19:16:00,57.6,32.2,29.82,North,7,2.2,2.7,38,0.00,,---,0.04,VWS V14.01,2013-05-28 01:16:00,
2013-05-27 19:17:00,57.4,32.0,29.82,NNE,32,2.2,3.6,38,0.00,,---,0.04,VWS V14.01,2013-05-28 01:17:00,
2013-05-27 19:18:00,57.4,32.0,29.82,East,83,2.2,3.6,38,0.00,,---,0.04,VWS V14.01,2013-05-28 01:18:00,
2013-05-27 19:19:00,57.4,32.0,29.82,East,83,0.0,3.6,38,0.00,,---,0.04,VWS V14.01,2013-05-28 01:19:00,
2013-05-27 19:21:00,57.4,32.7,29.82,North,6,0.0,4.0,39,0.00,,---,0.04,VWS V14.01,2013-05-28 01:21:00,
2013-05-27 19:22:00,57.4,32.7,29.82,North,0,3.1,4.0,39,0.00,,---,0.04,VWS V14.01,2013-05-28 01:22:00,
2013-05-27 19:23:00,57.2,31.8,29.82,North,8,2.7,4.0,38,0.00,,---,0.04,VWS V14.01,2013-05-28 01:23:00,
2013-05-27 19:24:00,57.2,31.8,29.82,North,9,2.7,4.0,38,0.00,,---,0.04,VWS V14.01,2013-05-28 01:24:00,
2013-05-27 19:26:00,57.2,31.8,29.82,North,7,2.2,4.0,38,0.00,,---,0.04,VWS V14.01,2013-05-28 01:26:00,
2013-05-27 19:27:00,57.2,31.2,29.82,North,7,2.2,4.0,37,0.00,,---,0.04,VWS V14.01,2013-05-28 01:27:00,
2013-05-27 19:28:00,57.2,31.2,29.82,North,7,0.0,4.0,37,0.00,,---,0.04,VWS V14.01,2013-05-28 01:28:00,
2013-05-27 19:29:00,57.0,31.7,29.82,North,7,0.0,4.0,38,0.00,,---,0.04,VWS V14.01,2013-05-28 01:29:00,
2013-05-27 19:31:00,57.0,31.7,29.82,North,7,2.2,2.7,38,0.00,,---,0.04,VWS V14.01,2013-05-28 01:31:00,
2013-05-27 19:32:00,57.0,31.7,29.82,North,7,2.2,2.7,38,0.00,,---,0.04,VWS V14.01,2013-05-28 01:32:00,
2013-05-27 19:34:00,57.0,31.7,29.82,North,6,3.1,3.1,38,0.00,,---,0.04,VWS V14.01,2013-05-28 01:34:00,
2013-05-27 19:35:00,57.0,31.7,29.82,North,4,3.6,3.6,38,0.00,,---,0.04,VWS V14.01,2013-05-28 01:35:00,
2013-05-27 19:37:00,57.0,31.0,29.82,North,0,3.6,4.0,37,0.00,,---,0.04,VWS V14.01,2013-05-28 01:37:00,
2013-05-27 19:39:00,57.0,31.0,29.82,North,5,2.2,4.0,37,0.00,,---,0.04,VWS V14.01,2013-05-28 01:39:00,
2013-05-27 19:40:00,57.2,31.2,29.82,North,4,3.1,4.0,37,0.00,,---,0.04,VWS V14.01,2013-05-28 01:40:00,
2013-05-27 19:42:00,57.0,31.7,29.82,North,4,2.7,4.0,38,0.00,,---,0.04,VWS V14.01,2013-05-28 01:42:00,
2013-05-27 19:44:00,57.0,31.7,29.82,North,4,3.1,4.0,38,0.00,,---,0.04,VWS V14.01,2013-05-28 01:44:00,
2013-05-27 19:45:00,56.8,31.5,29.82,North,357,3.6,4.0,38,0.00,,---,0.04,VWS V14.01,2013-05-28 01:45:00,
2013-05-27 19:47:00,56.8,31.5,29.82,North,0,3.1,3.6,38,0.00,,---,0.04,VWS V14.01,2013-05-28 01:47:00,
2013-05-27 19:49:00,56.8,31.5,29.82,North,0,2.7,3.6,38,0.00,,---,0.04,VWS V14.01,2013-05-28 01:49:00,
2013-05-27 19:50:00,56.8,31.5,29.82,North,0,2.7,3.6,38,0.00,,---,0.04,VWS V14.01,2013-05-28 01:50:00,
2013-05-27 19:52:00,56.7,31.4,29.82,North,357,3.6,3.6,38,0.00,,---,0.04,VWS V14.01,2013-05-28 01:52:00,
2013-05-27 19:54:00,56.7,31.4,29.82,North,357,2.7,3.6,38,0.00,,---,0.04,VWS V14.01,2013-05-28 01:54:00,
2013-05-27 19:55:00,56.5,31.2,29.82,North,357,2.2,3.6,38,0.00,,---,0.04,VWS V14.01,2013-05-28 01:55:00,
2013-05-27 19:56:00,56.5,31.2,29.82,North,357,0.0,3.6,38,0.00,,---,0.04,VWS V14.01,2013-05-28 01:56:00,
2013-05-27 19:57:00,56.5,31.2,29.82,North,357,0.0,3.6,38,0.00,,---,0.04,VWS V14.01,2013-05-28 01:57:00,
2013-05-27 20:00:00,56.3,31.0,29.82,North,357,2.7,3.6,38,0.00,,---,0.04,VWS V14.01,2013-05-28 02:00:00,
2013-05-27 20:01:00,56.3,31.7,29.82,North,357,0.0,2.2,39,0.00,,---,0.04,VWS V14.01,2013-05-28 02:01:00,
2013-05-27 20:02:00,56.3,31.7,29.82,North,357,0.0,2.2,39,0.00,,---,0.04,VWS V14.01,2013-05-28 02:02:00,
2013-05-27 20:05:00,56.3,31.7,29.82,North,357,2.7,3.1,39,0.00,,---,0.04,VWS V14.01,2013-05-28 02:05:00,
2013-05-27 20:06:00,56.3,31.7,29.82,North,357,2.7,3.1,39,0.00,,---,0.04,VWS V14.01,2013-05-28 02:06:00,
2013-05-27 20:07:00,56.1,31.5,29.82,North,357,2.2,3.1,39,0.00,,---,0.04,VWS V14.01,2013-05-28 02:07:00,
2013-05-27 20:10:00,56.1,31.5,29.82,North,357,2.2,3.1,39,0.00,,---,0.04,VWS V14.01,2013-05-28 02:10:00,
2013-05-27 20:11:00,56.1,31.5,29.82,North,357,2.7,3.1,39,0.00,,---,0.04,VWS V14.01,2013-05-28 02:11:00,
2013-05-27 20:12:00,56.1,31.5,29.82,North,357,2.7,3.1,39,0.00,,---,0.04,VWS V14.01,2013-05-28 02:12:00,
2013-05-27 20:13:00,56.1,31.5,29.82,North,357,2.7,3.1,39,0.00,,---,0.04,VWS V14.01,2013-05-28 02:13:00,
2013-05-27 20:15:00,56.1,32.2,29.82,North,6,3.1,3.1,40,0.00,,---,0.04,VWS V14.01,2013-05-28 02:15:00,
2013-05-27 20:16:00,56.1,32.2,29.82,North,2,4.0,4.0,40,0.00,,---,0.04,VWS V14.01,2013-05-28 02:16:00,
2013-05-27 20:17:00,55.9,32.0,29.79,North,2,2.7,4.0,40,0.00,,---,0.04,VWS V14.01,2013-05-28 02:17:00,
2013-05-27 20:18:00,55.9,32.0,29.79,North,2,2.2,4.0,40,0.00,,---,0.04,VWS V14.01,2013-05-28 02:18:00,
2013-05-27 20:21:00,55.9,32.6,29.79,North,2,0.0,4.0,41,0.00,,---,0.04,VWS V14.01,2013-05-28 02:21:00,
2013-05-27 20:22:00,55.9,32.6,29.79,North,2,0.0,4.0,41,0.00,,---,0.04,VWS V14.01,2013-05-28 02:22:00,
2013-05-27 20:24:00,55.8,32.4,29.79,North,2,0.0,4.0,41,0.00,,---,0.04,VWS V14.01,2013-05-28 02:24:00,
2013-05-27 20:26:00,55.8,33.0,29.79,North,2,0.0,4.0,42,0.00,,---,0.04,VWS V14.01,2013-05-28 02:26:00,
2013-05-27 20:27:00,55.8,33.0,29.79,North,2,0.0,4.0,42,0.00,,---,0.04,VWS V14.01,2013-05-28 02:27:00,
2013-05-27 20:28:00,55.8,33.6,29.79,North,2,0.0,4.0,43,0.00,,---,0.04,VWS V14.01,2013-05-28 02:28:00,
2013-05-27 20:29:00,55.6,33.5,29.79,North,2,0.0,4.0,43,0.00,,---,0.04,VWS V14.01,2013-05-28 02:29:00,
2013-05-27 20:31:00,55.6,34.0,29.79,North,2,0.0,0.0,44,0.00,,---,0.04,VWS V14.01,2013-05-28 02:31:00,
2013-05-27 20:32:00,55.4,33.9,29.79,North,2,0.0,0.0,44,0.00,,---,0.04,VWS V14.01,2013-05-28 02:32:00,
2013-05-27 20:33:00,55.4,33.9,29.79,North,2,0.0,0.0,44,0.00,,---,0.04,VWS V14.01,2013-05-28 02:33:00,
2013-05-27 20:34:00,55.4,33.9,29.79,North,2,0.0,0.0,44,0.00,,---,0.04,VWS V14.01,2013-05-28 02:34:00,
2013-05-27 20:37:00,55.2,34.8,29.79,North,2,0.0,0.0,46,0.00,,---,0.04,VWS V14.01,2013-05-28 02:37:00,
2013-05-27 20:38:00,55.2,34.8,29.79,North,2,0.0,0.0,46,0.00,,---,0.04,VWS V14.01,2013-05-28 02:38:00,
2013-05-27 20:39:00,55.2,34.8,29.79,North,2,0.0,0.0,46,0.00,,---,0.04,VWS V14.01,2013-05-28 02:39:00,
2013-05-27 20:42:00,55.0,34.7,29.79,North,2,2.2,2.2,46,0.00,,---,0.04,VWS V14.01,2013-05-28 02:42:00,
2013-05-27 20:43:00,55.0,35.2,29.79,West,268,2.7,2.7,47,0.00,,---,0.04,VWS V14.01,2013-05-28 02:43:00,
2013-05-27 20:44:00,55.0,35.2,29.79,WSW,255,3.6,3.6,47,0.00,,---,0.04,VWS V14.01,2013-05-28 02:44:00,
2013-05-27 20:47:00,54.9,35.0,29.82,SSW,208,7.2,7.2,47,0.00,,---,0.04,VWS V14.01,2013-05-28 02:47:00,
2013-05-27 20:48:00,54.5,33.6,29.82,SSW,204,5.4,8.1,45,0.00,,---,0.04,VWS V14.01,2013-05-28 02:48:00,
2013-05-27 20:49:00,54.5,33.0,29.82,SSW,213,7.6,9.2,44,0.00,,---,0.04,VWS V14.01,2013-05-28 02:49:00,
2013-05-27 20:50:00,54.5,31.9,29.82,SW,229,6.3,9.2,42,0.00,,---,0.04,VWS V14.01,2013-05-28 02:50:00,
2013-05-27 20:52:00,54.1,31.6,29.82,SSW,208,10.1,10.5,42,0.00,,---,0.04,VWS V14.01,2013-05-28 02:52:00,
2013-05-27 20:53:00,54.1,31.6,29.82,SSW,199,9.6,10.5,42,0.00,,---,0.04,VWS V14.01,2013-05-28 02:53:00,
2013-05-27 20:54:00,53.6,31.7,29.82,SSW,200,12.8,12.8,43,0.00,,---,0.04,VWS V14.01,2013-05-28 02:54:00,
2013-05-27 20:55:00,53.1,32.8,29.82,SSW,199,8.1,12.8,46,0.00,,---,0.04,VWS V14.01,2013-05-28 02:55:00,
2013-05-27 20:57:00,51.4,33.9,29.82,SSW,196,8.1,12.8,51,0.04,,---,0.08,VWS V14.01,2013-05-28 02:57:00,
2013-05-27 20:58:00,51.4,33.9,29.82,SSW,207,8.7,12.8,51,0.04,,---,0.08,VWS V14.01,2013-05-28 02:58:00,
2013-05-27 20:59:00,50.9,33.9,29.82,SSW,194,8.3,12.8,52,0.04,,---,0.08,VWS V14.01,2013-05-28 02:59:00,
2013-05-27 21:00:00,50.0,34.9,29.82,South,191,7.6,12.8,56,0.04,,---,0.08,VWS V14.01,2013-05-28 03:00:00,
2013-05-27 21:02:00,49.1,37.5,29.82,SSW,201,7.2,8.3,64,0.04,,---,0.08,VWS V14.01,2013-05-28 03:02:00,
2013-05-27 21:03:00,48.7,37.9,29.82,SW,233,5.8,8.3,66,0.04,,---,0.08,VWS V14.01,2013-05-28 03:03:00,
2013-05-27 21:04:00,48.7,38.7,29.82,SSW,202,5.4,8.3,68,0.04,,---,0.08,VWS V14.01,2013-05-28 03:04:00,
2013-05-27 21:05:00,48.6,38.5,29.82,SSW,205,5.4,8.3,68,0.04,,---,0.08,VWS V14.01,2013-05-28 03:05:00,
2013-05-27 21:06:00,48.4,39.1,29.82,SSW,195,5.4,8.3,70,0.04,,---,0.08,VWS V14.01,2013-05-28 03:06:00,
2013-05-27 21:08:00,48.2,39.2,29.82,SSW,206,6.3,8.3,71,0.04,,---,0.08,VWS V14.01,2013-05-28 03:08:00,
2013-05-27 21:09:00,48.0,39.1,29.82,South,191,5.8,8.3,71,0.04,,---,0.08,VWS V14.01,2013-05-28 03:09:00,
2013-05-27 21:10:00,47.8,38.9,29.82,SSW,202,6.3,8.3,71,0.04,,---,0.08,VWS V14.01,2013-05-28 03:10:00,
2013-05-27 21:11:00,47.8,38.9,29.82,SSW,211,5.8,8.3,71,0.04,,---,0.08,VWS V14.01,2013-05-28 03:11:00,
2013-05-27 21:13:00,47.8,38.9,29.82,SSW,205,6.3,8.3,71,0.04,,---,0.08,VWS V14.01,2013-05-28 03:13:00,
2013-05-27 21:14:00,47.8,39.3,29.82,SSW,195,5.4,8.3,72,0.04,,---,0.08,VWS V14.01,2013-05-28 03:14:00,
2013-05-27 21:15:00,47.8,39.3,29.82,South,186,3.6,8.3,72,0.04,,---,0.08,VWS V14.01,2013-05-28 03:15:00,
2013-05-27 21:16:00,47.8,39.6,29.82,South,189,4.9,4.9,73,0.04,,---,0.08,VWS V14.01,2013-05-28 03:16:00,
2013-05-27 21:18:00,47.8,40.0,29.82,SSW,192,5.4,5.4,74,0.04,,---,0.08,VWS V14.01,2013-05-28 03:18:00,
2013-05-27 21:19:00,47.8,40.3,29.82,SSW,193,5.8,5.8,75,0.04,,---,0.08,VWS V14.01,2013-05-28 03:19:00,
2013-05-27 21:20:00,47.7,40.1,29.82,South,190,5.8,6.3,75,0.04,,---,0.08,VWS V14.01,2013-05-28 03:20:00,
2013-05-27 21:21:00,47.8,40.7,29.82,SSW,201,4.0,6.3,76,0.04,,---,0.08,VWS V14.01,2013-05-28 03:21:00,
2013-05-27 21:23:00,47.8,40.7,29.82,SW,215,0.0,7.6,76,0.04,,---,0.08,VWS V14.01,2013-05-28 03:23:00,
2013-05-27 21:24:00,47.8,40.7,29.82,SW,215,0.0,7.6,76,0.04,,---,0.08,VWS V14.01,2013-05-28 03:24:00,
2013-05-27 21:25:00,47.8,40.7,29.82,SSE,149,3.1,7.6,76,0.04,,---,0.08,VWS V14.01,2013-05-28 03:25:00,
2013-05-27 21:26:00,47.8,40.7,29.82,ESE,104,5.8,7.6,76,0.08,,---,0.12,VWS V14.01,2013-05-28 03:26:00,
2013-05-27 21:28:00,48.0,41.2,29.82,ESE,103,4.5,7.6,77,0.08,,---,0.12,VWS V14.01,2013-05-28 03:28:00,
2013-05-27 21:29:00,47.8,41.0,29.82,ESE,111,4.9,7.6,77,0.08,,---,0.12,VWS V14.01,2013-05-28 03:29:00,
2013-05-27 21:30:00,47.8,41.0,29.82,ESE,115,3.6,7.6,77,0.08,,---,0.12,VWS V14.01,2013-05-28 03:30:00,
2013-05-27 21:31:00,47.8,41.0,29.82,ESE,114,2.2,3.6,77,0.08,,---,0.12,VWS V14.01,2013-05-28 03:31:00,
2013-05-27 21:33:00,47.8,41.0,29.79,SE,131,2.2,3.6,77,0.08,,---,0.12,VWS V14.01,2013-05-28 03:33:00,
2013-05-27 21:34:00,47.8,41.0,29.79,SE,129,0.0,3.6,77,0.08,,---,0.12,VWS V14.01,2013-05-28 03:34:00,
2013-05-27 21:35:00,47.8,41.0,29.79,SW,232,3.1,3.6,77,0.08,,---,0.12,VWS V14.01,2013-05-28 03:35:00,
2013-05-27 21:36:00,47.8,41.0,29.79,SSE,154,0.0,3.6,77,0.08,,---,0.12,VWS V14.01,2013-05-28 03:36:00,
2013-05-27 21:39:00,47.8,41.3,29.79,South,183,2.7,4.0,78,0.08,,---,0.12,VWS V14.01,2013-05-28 03:39:00,
2013-05-27 21:40:00,47.8,41.3,29.79,SSW,206,3.6,4.5,78,0.08,,---,0.12,VWS V14.01,2013-05-28 03:40:00,
2013-05-27 21:41:00,47.8,41.7,29.79,SSW,200,2.7,4.5,79,0.08,,---,0.12,VWS V14.01,2013-05-28 03:41:00,
2013-05-27 21:42:00,47.8,41.7,29.79,SSW,200,2.7,4.5,79,0.08,,---,0.12,VWS V14.01,2013-05-28 03:42:00,
2013-05-27 21:44:00,47.8,42.0,29.79,South,191,3.1,4.5,80,0.08,,---,0.12,VWS V14.01,2013-05-28 03:44:00,
2013-05-27 21:45:00,47.8,42.0,29.79,SSW,195,2.7,4.5,80,0.08,,---,0.12,VWS V14.01,2013-05-28 03:45:00,
2013-05-27 21:47:00,47.7,41.5,29.79,SW,229,0.0,3.1,79,0.08,,---,0.12,VWS V14.01,2013-05-28 03:47:00,
2013-05-27 21:49:00,47.7,41.5,29.79,SW,229,2.2,3.1,79,0.08,,---,0.12,VWS V14.01,2013-05-28 03:49:00,
2013-05-27 21:50:00,47.7,41.5,29.79,SSW,202,0.0,3.1,79,0.08,,---,0.12,VWS V14.01,2013-05-28 03:50:00,
2013-05-27 21:52:00,47.7,41.8,29.79,SW,236,2.7,3.6,80,0.08,,---,0.12,VWS V14.01,2013-05-28 03:52:00,
2013-05-27 21:54:00,47.5,41.3,29.79,SW,234,3.1,6.3,79,0.08,,---,0.12,VWS V14.01,2013-05-28 03:54:00,
2013-05-27 21:55:00,47.5,41.6,29.79,SW,234,3.6,6.3,80,0.08,,---,0.12,VWS V14.01,2013-05-28 03:55:00,
2013-05-27 21:56:00,47.5,41.6,29.79,SW,234,2.2,6.3,80,0.08,,---,0.12,VWS V14.01,2013-05-28 03:56:00,
2013-05-27 21:57:00,47.5,41.6,29.79,SW,232,0.0,6.3,80,0.08,,---,0.12,VWS V14.01,2013-05-28 03:57:00,
2013-05-27 21:58:00,47.5,41.6,29.79,SW,232,0.0,6.3,80,0.08,,---,0.12,VWS V14.01,2013-05-28 03:58:00,
2013-05-27 22:00:00,47.3,41.5,29.79,SW,232,0.0,6.3,80,0.08,,---,0.12,VWS V14.01,2013-05-28 04:00:00,
2013-05-27 22:01:00,47.3,41.5,29.79,SW,232,2.7,2.7,80,0.04,,---,0.12,VWS V14.01,2013-05-28 04:01:00,
2013-05-27 22:06:00,47.3,41.8,29.79,SSW,211,3.6,4.0,81,0.04,,---,0.12,VWS V14.01,2013-05-28 04:06:00,
2013-05-27 22:11:00,47.3,40.5,29.79,SSW,213,3.6,4.9,77,0.04,,---,0.12,VWS V14.01,2013-05-28 04:11:00,
2013-05-27 22:16:00,47.5,39.6,29.79,SW,216,2.7,3.6,74,0.04,,---,0.12,VWS V14.01,2013-05-28 04:16:00,
2013-05-27 22:17:00,47.5,39.6,29.82,SSW,212,3.1,3.6,74,0.04,,---,0.12,VWS V14.01,2013-05-28 04:17:00,
2013-05-27 22:21:00,47.8,39.3,29.82,SSW,197,3.6,3.6,72,0.04,,---,0.12,VWS V14.01,2013-05-28 04:21:00,
2013-05-27 22:22:00,47.8,39.3,29.82,SSW,197,2.7,3.6,72,0.04,,---,0.12,VWS V14.01,2013-05-28 04:22:00,
2013-05-27 22:26:00,47.7,39.4,29.82,SSW,204,3.1,3.6,73,0.04,,---,0.12,VWS V14.01,2013-05-28 04:26:00,
2013-05-27 22:27:00,47.7,39.4,29.82,SSW,204,3.1,3.6,73,0.04,,---,0.12,VWS V14.01,2013-05-28 04:27:00,
2013-05-27 22:32:00,47.3,39.5,29.79,South,183,0.0,2.2,74,0.00,,---,0.12,VWS V14.01,2013-05-28 04:32:00,
2013-05-27 22:37:00,46.9,39.8,29.79,SSW,197,3.1,4.0,76,0.00,,---,0.12,VWS V14.01,2013-05-28 04:37:00,
2013-05-27 22:38:00,46.9,39.8,29.79,SSW,197,2.7,4.0,76,0.00,,---,0.12,VWS V14.01,2013-05-28 04:38:00,
2013-05-27 22:42:00,46.8,39.9,29.79,SSW,195,3.6,4.9,77,0.00,,---,0.12,VWS V14.01,2013-05-28 04:42:00,
2013-05-27 22:43:00,46.8,39.9,29.79,SSW,198,3.6,4.9,77,0.00,,---,0.12,VWS V14.01,2013-05-28 04:43:00,
2013-05-27 22:47:00,46.9,40.5,29.79,SSW,197,4.0,4.0,78,0.00,,---,0.12,VWS V14.01,2013-05-28 04:47:00,
2013-05-27 22:48:00,46.9,40.1,29.79,SSW,197,4.5,4.5,77,0.00,,---,0.12,VWS V14.01,2013-05-28 04:48:00,
2013-05-27 22:49:00,46.9,40.1,29.79,SSW,197,2.7,4.5,77,0.00,,---,0.12,VWS V14.01,2013-05-28 04:49:00,
2013-05-27 22:52:00,47.1,40.3,29.79,SSW,199,3.6,4.9,77,0.00,,---,0.12,VWS V14.01,2013-05-28 04:52:00,
2013-05-27 22:53:00,47.1,40.3,29.79,SSW,198,3.6,4.9,77,0.00,,---,0.12,VWS V14.01,2013-05-28 04:53:00,
2013-05-27 22:54:00,47.1,40.0,29.79,SSW,195,3.1,4.9,76,0.00,,---,0.12,VWS V14.01,2013-05-28 04:54:00,
2013-05-27 22:58:00,47.1,40.0,29.79,SSW,197,4.0,4.9,76,0.00,,---,0.12,VWS V14.01,2013-05-28 04:58:00,
2013-05-27 22:59:00,47.1,40.0,29.79,South,190,2.7,4.9,76,0.00,,---,0.12,VWS V14.01,2013-05-28 04:59:00,
2013-05-27 23:03:00,46.9,39.8,29.79,SSW,200,5.4,6.3,76,0.00,,---,0.12,VWS V14.01,2013-05-28 05:03:00,
2013-05-27 23:04:00,46.9,39.8,29.79,SSW,196,4.0,6.3,76,0.00,,---,0.12,VWS V14.01,2013-05-28 05:04:00,
2013-05-27 23:05:00,46.9,39.8,29.79,SSW,197,4.0,6.3,76,0.00,,---,0.12,VWS V14.01,2013-05-28 05:05:00,
2013-05-27 23:08:00,46.9,39.8,29.79,SSW,199,4.9,6.3,76,0.00,,---,0.12,VWS V14.01,2013-05-28 05:08:00,
2013-05-27 23:09:00,46.9,39.8,29.79,SSW,204,2.7,6.3,76,0.00,,---,0.12,VWS V14.01,2013-05-28 05:09:00,
2013-05-27 23:10:00,46.9,39.8,29.79,SSW,199,3.1,6.3,76,0.00,,---,0.12,VWS V14.01,2013-05-28 05:10:00,
2013-05-27 23:13:00,46.9,39.8,29.79,SSW,200,3.1,6.3,76,0.00,,---,0.12,VWS V14.01,2013-05-28 05:13:00,
2013-05-27 23:14:00,46.9,39.8,29.79,SSW,199,3.1,6.3,76,0.00,,---,0.12,VWS V14.01,2013-05-28 05:14:00,
2013-05-27 23:15:00,46.9,39.8,29.79,SSW,192,3.6,6.3,76,0.00,,---,0.12,VWS V14.01,2013-05-28 05:15:00,
2013-05-27 23:18:00,46.9,39.8,29.79,SSW,201,5.4,5.4,76,0.00,,---,0.12,VWS V14.01,2013-05-28 05:18:00,
2013-05-27 23:19:00,46.9,39.8,29.79,SSW,195,3.6,5.4,76,0.00,,---,0.12,VWS V14.01,2013-05-28 05:19:00,
2013-05-27 23:20:00,46.9,39.4,29.79,SSW,194,4.5,5.4,75,0.00,,---,0.12,VWS V14.01,2013-05-28 05:20:00,
2013-05-27 23:23:00,46.8,39.3,29.79,SSW,201,4.0,5.4,75,0.00,,---,0.12,VWS V14.01,2013-05-28 05:23:00,
2013-05-27 23:24:00,46.8,39.3,29.79,SSW,204,3.6,5.4,75,0.00,,---,0.12,VWS V14.01,2013-05-28 05:24:00,
2013-05-27 23:25:00,46.8,39.3,29.79,SSW,209,5.4,5.4,75,0.00,,---,0.12,VWS V14.01,2013-05-28 05:25:00,
2013-05-27 23:29:00,46.8,38.9,29.79,SSW,199,6.3,6.3,74,0.00,,---,0.12,VWS V14.01,2013-05-28 05:29:00,
2013-05-27 23:30:00,46.8,38.9,29.79,SSW,194,4.9,6.3,74,0.00,,---,0.12,VWS V14.01,2013-05-28 05:30:00,
2013-05-27 23:34:00,46.6,38.8,29.79,SSW,199,5.4,6.3,74,0.00,,---,0.12,VWS V14.01,2013-05-28 05:34:00,
2013-05-27 23:35:00,46.6,38.4,29.79,SSW,200,5.8,6.3,73,0.00,,---,0.12,VWS V14.01,2013-05-28 05:35:00,
2013-05-27 23:39:00,46.6,38.4,29.79,South,179,4.9,8.1,73,0.00,,---,0.12,VWS V14.01,2013-05-28 05:39:00,
2013-05-27 23:40:00,46.6,38.4,29.79,South,181,3.6,8.1,73,0.00,,---,0.12,VWS V14.01,2013-05-28 05:40:00,
2013-05-27 23:41:00,46.6,38.4,29.79,South,183,2.2,8.1,73,0.00,,---,0.12,VWS V14.01,2013-05-28 05:41:00,
2013-05-27 23:44:00,46.6,38.4,29.79,SSW,203,4.9,8.1,73,0.00,,---,0.12,VWS V14.01,2013-05-28 05:44:00,
2013-05-27 23:45:00,46.6,38.4,29.79,SSW,195,4.0,8.1,73,0.00,,---,0.12,VWS V14.01,2013-05-28 05:45:00,
2013-05-27 23:46:00,46.4,38.2,29.79,SSW,202,3.1,3.6,73,0.00,,---,0.12,VWS V14.01,2013-05-28 05:46:00,
2013-05-27 23:49:00,46.4,38.2,29.79,SSW,194,5.8,5.8,73,0.00,,---,0.12,VWS V14.01,2013-05-28 05:49:00,
2013-05-27 23:50:00,46.2,38.4,29.79,SSW,194,5.8,5.8,74,0.00,,---,0.12,VWS V14.01,2013-05-28 05:50:00,
2013-05-27 23:51:00,46.2,38.4,29.79,SSW,203,5.4,5.8,74,0.00,,---,0.12,VWS V14.01,2013-05-28 05:51:00,
2013-05-27 23:54:00,46.2,38.4,29.79,SSW,195,4.9,5.8,74,0.00,,---,0.12,VWS V14.01,2013-05-28 05:54:00,
2013-05-27 23:55:00,46.2,38.1,29.79,SSW,200,4.9,6.3,73,0.00,,---,0.12,VWS V14.01,2013-05-28 05:55:00,
2013-05-27 23:56:00,46.2,38.1,29.79,South,188,6.3,6.3,73,0.00,,---,0.12,VWS V14.01,2013-05-28 05:56:00,
2013-05-27 23:59:00,46.2,38.1,29.79,SSW,197,5.4,6.3,73,0.00,,---,0.12,VWS V14.01,2013-05-28 05:59:00,